Observation data for JA Ranch on 07/20/2019      Previous  Date       Current Mesonet Observations  Soil Data  Daily Summary Page  Observations in Plain Language
KPD3 200500Z 15009KT 30/17 A2989 RMK A01 T03010167  RH  044%=      5-min Rain = 0
KPD3 200501Z 15009KT 30/17 A2989 RMK A01 T03010167  RH  045%=      5-min Rain = 0
KPD3 200502Z 15009KT 30/17 A2989 RMK A01 T03010167  RH  045%=      5-min Rain = 0
KPD3 200503Z 15009KT 30/17 A2989 RMK A01 T03000167  RH  045%=      5-min Rain = 0
KPD3 200504Z 15009KT 30/17 A2989 RMK A01 T03000167  RH  045%=      5-min Rain = 0
KPD3 200505Z 15007KT 30/17 A2989 RMK A01 T03000167  RH  045%=      5-min Rain = 0
KPD3 200506Z 16007KT 30/17 A2989 RMK A01 T02990166  RH  045%=      5-min Rain = 0
KPD3 200507Z 15007KT 30/17 A2989 RMK A01 T02980166  RH  045%=      5-min Rain = 0
KPD3 200508Z 16007KT 30/17 A2989 RMK A01 T02980166  RH  045%=      5-min Rain = 0
KPD3 200509Z 15007KT 30/17 A2989 RMK A01 T02970166  RH  045%=      5-min Rain = 0
KPD3 200510Z 15007KT 30/17 A2989 RMK A01 T02960166  RH  045%=      5-min Rain = 0
KPD3 200511Z 15007KT 30/17 A2989 RMK A01 T02950166  RH  046%=      5-min Rain = 0
KPD3 200512Z 16007KT 30/17 A2989 RMK A01 T02950166  RH  046%=      5-min Rain = 0
KPD3 200513Z 15006KT 29/17 A2989 RMK A01 T02940166  RH  046%=      5-min Rain = 0
KPD3 200514Z 15007KT 29/17 A2989 RMK A01 T02940165  RH  046%=      5-min Rain = 0
KPD3 200515Z 15006KT 29/17 A2989 RMK A01 T02930165  RH  046%=      5-min Rain = 0
KPD3 200516Z 15006KT 29/17 A2989 RMK A01 T02920165  RH  046%=      5-min Rain = 0
KPD3 200517Z 15006KT 29/17 A2989 RMK A01 T02910165  RH  046%=      5-min Rain = 0
KPD3 200518Z 15006KT 29/17 A2989 RMK A01 T02900165  RH  047%=      5-min Rain = 0
KPD3 200519Z 15006KT 29/17 A2989 RMK A01 T02880165  RH  047%=      5-min Rain = 0
KPD3 200520Z 15006KT 29/16 A2989 RMK A01 T02870164  RH  047%=      5-min Rain = 0
KPD3 200521Z 15007KT 29/16 A2989 RMK A01 T02860164  RH  048%=      5-min Rain = 0
KPD3 200522Z 15007KT 28/16 A2989 RMK A01 T02840164  RH  048%=      5-min Rain = 0
KPD3 200523Z 15007KT 28/16 A2989 RMK A01 T02830164  RH  048%=      5-min Rain = 0
KPD3 200524Z 15007KT 28/16 A2989 RMK A01 T02830164  RH  049%=      5-min Rain = 0
KPD3 200525Z 15006KT 28/16 A2989 RMK A01 T02830164  RH  049%=      5-min Rain = 0
KPD3 200526Z 15006KT 28/16 A2989 RMK A01 T02820164  RH  049%=      5-min Rain = 0
KPD3 200527Z 15006KT 28/16 A2989 RMK A01 T02820164  RH  049%=      5-min Rain = 0
KPD3 200528Z 15006KT 28/16 A2989 RMK A01 T02810163  RH  049%=      5-min Rain = 0
KPD3 200529Z 15005KT 28/16 A2989 RMK A01 T02810163  RH  049%=      5-min Rain = 0
KPD3 200530Z 15005KT 28/16 A2989 RMK A01 T02800163  RH  049%=      5-min Rain = 0
KPD3 200531Z 14005KT 28/16 A2989 RMK A01 T02800163  RH  049%=      5-min Rain = 0
KPD3 200532Z 14005KT 28/16 A2989 RMK A01 T02800163  RH  049%=      5-min Rain = 0
KPD3 200533Z 15005KT 28/16 A2989 RMK A01 T02790163  RH  049%=      5-min Rain = 0
KPD3 200534Z 15005KT 28/16 A2989 RMK A01 T02780163  RH  049%=      5-min Rain = 0
KPD3 200535Z 15005KT 28/16 A2989 RMK A01 T02770163  RH  050%=      5-min Rain = 0
KPD3 200536Z 14005KT 28/16 A2989 RMK A01 T02770163  RH  050%=      5-min Rain = 0
KPD3 200537Z 15006KT 28/16 A2989 RMK A01 T02770163  RH  050%=      5-min Rain = 0
KPD3 200538Z 15006KT 28/16 A2989 RMK A01 T02760162  RH  050%=      5-min Rain = 0
KPD3 200539Z 15007KT 27/16 A2989 RMK A01 T02740162  RH  050%=      5-min Rain = 0
KPD3 200540Z 15008KT 27/16 A2989 RMK A01 T02730161  RH  050%=      5-min Rain = 0
KPD3 200541Z 15007KT 28/16 A2989 RMK A01 T02750162  RH  050%=      5-min Rain = 0
KPD3 200542Z 15006KT 28/16 A2989 RMK A01 T02750162  RH  050%=      5-min Rain = 0
KPD3 200543Z 14007KT 27/16 A2989 RMK A01 T02730162  RH  050%=      5-min Rain = 0
KPD3 200544Z 14007KT 27/16 A2989 RMK A01 T02730162  RH  051%=      5-min Rain = 0
KPD3 200545Z 14007KT 27/16 A2989 RMK A01 T02720161  RH  051%=      5-min Rain = 0
KPD3 200546Z 15007KT 27/16 A2989 RMK A01 T02710161  RH  051%=      5-min Rain = 0
KPD3 200547Z 15007KT 27/16 A2989 RMK A01 T02700161  RH  051%=      5-min Rain = 0
KPD3 200548Z 14006KT 27/16 A2989 RMK A01 T02690161  RH  051%=      5-min Rain = 0
KPD3 200549Z 14007KT 27/16 A2989 RMK A01 T02690161  RH  052%=      5-min Rain = 0
KPD3 200550Z 14007KT 27/16 A2989 RMK A01 T02680160  RH  052%=      5-min Rain = 0
KPD3 200551Z 14007KT 27/16 A2989 RMK A01 T02680160  RH  052%=      5-min Rain = 0
KPD3 200552Z 15008KT 27/16 A2989 RMK A01 T02680160  RH  051%=      5-min Rain = 0
KPD3 200553Z 14006KT 27/16 A2989 RMK A01 T02680159  RH  051%=      5-min Rain = 0
KPD3 200554Z 14006KT 27/16 A2989 RMK A01 T02700160  RH  051%=      5-min Rain = 0
KPD3 200555Z 14006KT 27/16 A2989 RMK A01 T02700160  RH  051%=      5-min Rain = 0
KPD3 200556Z 14006KT 27/16 A2989 RMK A01 T02700159  RH  051%=      5-min Rain = 0
KPD3 200557Z 14006KT 27/16 A2989 RMK A01 T02700159  RH  051%=      5-min Rain = 0
KPD3 200558Z 14007KT 27/16 A2989 RMK A01 T02690159  RH  051%=      5-min Rain = 0
KPD3 200559Z 15007KT 27/16 A2989 RMK A01 T02680158  RH  051%=      5-min Rain = 0
KPD3 200600Z 14006KT 27/16 A2989 RMK A01 T02680158  RH  051%=      5-min Rain = 0
KPD3 200601Z 14006KT 27/16 A2989 RMK A01 T02680158  RH  051%=      5-min Rain = 0
KPD3 200602Z 14007KT 27/16 A2989 RMK A01 T02680158  RH  051%=      5-min Rain = 0
KPD3 200603Z 14007KT 27/16 A299 RMK A01 T02670158  RH  051%=      5-min Rain = 0
KPD3 200604Z 14007KT 27/16 A299 RMK A01 T02660157  RH  051%=      5-min Rain = 0
KPD3 200605Z 15007KT 27/16 A299 RMK A01 T02650157  RH  051%=      5-min Rain = 0
KPD3 200606Z 15006KT 27/16 A299 RMK A01 T02650156  RH  051%=      5-min Rain = 0
KPD3 200607Z 15006KT 27/16 A299 RMK A01 T02670156  RH  051%=      5-min Rain = 0
KPD3 200608Z 14007KT 27/16 A299 RMK A01 T02690157  RH  050%=      5-min Rain = 0
KPD3 200609Z 15007KT 27/16 A299 RMK A01 T02690156  RH  050%=      5-min Rain = 0
KPD3 200610Z 14006KT 27/16 A299 RMK A01 T02700156  RH  050%=      5-min Rain = 0
KPD3 200611Z 14007KT 27/16 A299 RMK A01 T02690156  RH  050%=      5-min Rain = 0
KPD3 200612Z 14007KT 27/16 A299 RMK A01 T02690156  RH  050%=      5-min Rain = 0
KPD3 200613Z 15007KT 27/16 A299 RMK A01 T02690155  RH  050%=      5-min Rain = 0
KPD3 200614Z 15007KT 27/16 A299 RMK A01 T02690155  RH  050%=      5-min Rain = 0
KPD3 200615Z 15007KT 27/16 A299 RMK A01 T02680155  RH  050%=      5-min Rain = 0
KPD3 200616Z 15006KT 27/15 A299 RMK A01 T02680154  RH  050%=      5-min Rain = 0
KPD3 200617Z 14007KT 27/15 A299 RMK A01 T02680153  RH  049%=      5-min Rain = 0
KPD3 200618Z 14006KT 27/15 A299 RMK A01 T02700152  RH  049%=      5-min Rain = 0
KPD3 200619Z 14005KT 27/15 A299 RMK A01 T02710153  RH  048%=      5-min Rain = 0
KPD3 200620Z 15005KT 27/15 A299 RMK A01 T02710153  RH  048%=      5-min Rain = 0
KPD3 200621Z 16005KT 27/15 A299 RMK A01 T02710153  RH  048%=      5-min Rain = 0
KPD3 200622Z 15005KT 27/15 A299 RMK A01 T02690152  RH  049%=      5-min Rain = 0
KPD3 200623Z 15005KT 27/15 A299 RMK A01 T02690153  RH  049%=      5-min Rain = 0
KPD3 200624Z 15005KT 27/15 A299 RMK A01 T02680152  RH  049%=      5-min Rain = 0
KPD3 200625Z 14005KT 27/15 A299 RMK A01 T02670152  RH  049%=      5-min Rain = 0
KPD3 200626Z 15005KT 27/15 A299 RMK A01 T02670152  RH  049%=      5-min Rain = 0
KPD3 200627Z 15006KT 27/15 A299 RMK A01 T02670152  RH  049%=      5-min Rain = 0
KPD3 200628Z 15006KT 27/15 A299 RMK A01 T02660151  RH  049%=      5-min Rain = 0
KPD3 200629Z 15006KT 27/15 A299 RMK A01 T02660151  RH  049%=      5-min Rain = 0
KPD3 200630Z 15005KT 27/15 A299 RMK A01 T02650151  RH  049%=      5-min Rain = 0
KPD3 200631Z 14006KT 27/15 A299 RMK A01 T02650151  RH  050%=      5-min Rain = 0
KPD3 200632Z 15007KT 26/15 A299 RMK A01 T02640151  RH  050%=      5-min Rain = 0
KPD3 200633Z 15006KT 26/15 A299 RMK A01 T02640151  RH  050%=      5-min Rain = 0
KPD3 200634Z 16005KT 27/15 A299 RMK A01 T02650150  RH  049%=      5-min Rain = 0
KPD3 200635Z 15005KT 26/15 A299 RMK A01 T02640150  RH  050%=      5-min Rain = 0
KPD3 200636Z 14005KT 26/15 A299 RMK A01 T02620150  RH  050%=      5-min Rain = 0
KPD3 200637Z 15004KT 26/15 A299 RMK A01 T02600150  RH  051%=      5-min Rain = 0
KPD3 200638Z 15004KT 26/15 A299 RMK A01 T02590150  RH  051%=      5-min Rain = 0
KPD3 200639Z 15005KT 26/15 A299 RMK A01 T02590150  RH  051%=      5-min Rain = 0
KPD3 200640Z 16006KT 26/15 A299 RMK A01 T02590149  RH  051%=      5-min Rain = 0
KPD3 200641Z 16005KT 26/15 A299 RMK A01 T02590148  RH  050%=      5-min Rain = 0
KPD3 200642Z 15006KT 26/15 A299 RMK A01 T02610149  RH  050%=      5-min Rain = 0
KPD3 200643Z 15005KT 26/15 A299 RMK A01 T02610148  RH  050%=      5-min Rain = 0
KPD3 200644Z 14005KT 26/15 A299 RMK A01 T02610148  RH  050%=      5-min Rain = 0
KPD3 200645Z 15006KT 26/15 A299 RMK A01 T02610148  RH  050%=      5-min Rain = 0
KPD3 200646Z 15006KT 26/15 A299 RMK A01 T02610148  RH  050%=      5-min Rain = 0
KPD3 200647Z 15005KT 26/15 A299 RMK A01 T02600148  RH  050%=      5-min Rain = 0
KPD3 200648Z 16004KT 26/15 A299 RMK A01 T02590147  RH  050%=      5-min Rain = 0
KPD3 200649Z 17004KT 26/15 A299 RMK A01 T02590147  RH  050%=      5-min Rain = 0
KPD3 200650Z 17004KT 26/15 A299 RMK A01 T02580147  RH  050%=      5-min Rain = 0
KPD3 200651Z 16004KT 26/15 A299 RMK A01 T02560146  RH  051%=      5-min Rain = 0
KPD3 200652Z 16005KT 26/15 A299 RMK A01 T02570146  RH  050%=      5-min Rain = 0
KPD3 200653Z 17006KT 26/15 A299 RMK A01 T02600145  RH  049%=      5-min Rain = 0
KPD3 200654Z 17006KT 26/14 A299 RMK A01 T02630144  RH  048%=      5-min Rain = 0
KPD3 200655Z 16005KT 27/15 A299 RMK A01 T02660145  RH  047%=      5-min Rain = 0
KPD3 200656Z 16006KT 27/15 A299 RMK A01 T02670145  RH  047%=      5-min Rain = 0
KPD3 200657Z 17007KT 27/15 A299 RMK A01 T02670145  RH  047%=      5-min Rain = 0
KPD3 200658Z 17007KT 27/14 A299 RMK A01 T02670144  RH  047%=      5-min Rain = 0
KPD3 200659Z 17005KT 27/14 A299 RMK A01 T02670143  RH  047%=      5-min Rain = 0
KPD3 200700Z 17005KT 27/14 A299 RMK A01 T02660143  RH  047%=      5-min Rain = 0
KPD3 200701Z 16006KT 27/14 A299 RMK A01 T02650143  RH  047%=      5-min Rain = 0
KPD3 200702Z 16006KT 26/14 A299 RMK A01 T02640143  RH  047%=      5-min Rain = 0
KPD3 200703Z 18008KT 26/14 A299 RMK A01 T02630141  RH  047%=      5-min Rain = 0
KPD3 200704Z 17008KT 27/14 A299 RMK A01 T02650137  RH  045%=      5-min Rain = 0
KPD3 200705Z 17009KT 27/14 A299 RMK A01 T02700135  RH  044%=      5-min Rain = 0
KPD3 200706Z 16008KT 27/14 A299 RMK A01 T02740136  RH  043%=      5-min Rain = 0
KPD3 200707Z 18009KT 28/13 A299 RMK A01 T02750134  RH  042%=      5-min Rain = 0
KPD3 200708Z 17007KT 28/13 A299 RMK A01 T02780133  RH  041%=      5-min Rain = 0
KPD3 200709Z 18007KT 28/13 A299 RMK A01 T02790133  RH  041%=      5-min Rain = 0
KPD3 200710Z 19008KT 28/13 A299 RMK A01 T02790133  RH  040%=      5-min Rain = 0
KPD3 200711Z 18012KT 28/13 A299 RMK A01 T02820131  RH  039%=      5-min Rain = 0
KPD3 200712Z 19013KT 29/13 A299 RMK A01 T02880131  RH  038%=      5-min Rain = 0
KPD3 200713Z 19013KT 29/13 A299 RMK A01 T02930131  RH  037%=      5-min Rain = 0
KPD3 200714Z 18013KT 30/13 A299 RMK A01 T02960131  RH  036%=      5-min Rain = 0
KPD3 200715Z 18011KT 30/13 A299 RMK A01 T02970131  RH  036%=      5-min Rain = 0
KPD3 200716Z 19011KT 30/13 A299 RMK A01 T02980131  RH  036%=      5-min Rain = 0
KPD3 200717Z 19011KT 30/13 A299 RMK A01 T02980130  RH  036%=      5-min Rain = 0
KPD3 200718Z 19011KT 30/13 A299 RMK A01 T02980130  RH  036%=      5-min Rain = 0
KPD3 200719Z 19011KT 30/13 A299 RMK A01 T02980130  RH  036%=      5-min Rain = 0
KPD3 200720Z 19011KT 30/13 A299 RMK A01 T02980130  RH  036%=      5-min Rain = 0
KPD3 200721Z 20010KT 30/13 A299 RMK A01 T02980130  RH  036%=      5-min Rain = 0
KPD3 200722Z 19010KT 30/13 A299 RMK A01 T02970131  RH  036%=      5-min Rain = 0
KPD3 200723Z 19011KT 30/13 A299 RMK A01 T02970131  RH  036%=      5-min Rain = 0
KPD3 200724Z 19009KT 30/13 A299 RMK A01 T02960130  RH  036%=      5-min Rain = 0
KPD3 200725Z 19012KT 30/13 A299 RMK A01 T02970130  RH  036%=      5-min Rain = 0
KPD3 200726Z 19010KT 30/13 A299 RMK A01 T02970130  RH  036%=      5-min Rain = 0
KPD3 200727Z 18010KT 30/13 A299 RMK A01 T02970130  RH  036%=      5-min Rain = 0
KPD3 200728Z 19010KT 30/13 A299 RMK A01 T02960130  RH  036%=      5-min Rain = 0
KPD3 200729Z 19012KT 30/13 A299 RMK A01 T02950130  RH  036%=      5-min Rain = 0
KPD3 200730Z 19014KT 30/13 A299 RMK A01 T02970130  RH  036%=      5-min Rain = 0
KPD3 200731Z 19013G18KT 30/13 A299 RMK A01 T03000131  RH  035%=      5-min Rain = 0
KPD3 200732Z 20015KT 30/13 A299 RMK A01 T03010131  RH  035%=      5-min Rain = 0
KPD3 200733Z 20012KT 30/13 A299 RMK A01 T03020130  RH  035%=      5-min Rain = 0
KPD3 200734Z 20012KT 30/13 A299 RMK A01 T03020131  RH  035%=      5-min Rain = 0
KPD3 200735Z 20012KT 30/13 A299 RMK A01 T03010130  RH  035%=      5-min Rain = 0
KPD3 200736Z 20011KT 30/13 A299 RMK A01 T03000130  RH  035%=      5-min Rain = 0
KPD3 200737Z 20011KT 30/13 A299 RMK A01 T03000130  RH  035%=      5-min Rain = 0
KPD3 200738Z 19010KT 30/13 A299 RMK A01 T02990130  RH  036%=      5-min Rain = 0
KPD3 200739Z 19010KT 30/13 A299 RMK A01 T02990131  RH  036%=      5-min Rain = 0
KPD3 200740Z 19010KT 30/13 A299 RMK A01 T02980131  RH  036%=      5-min Rain = 0
KPD3 200741Z 19012KT 30/13 A299 RMK A01 T02960130  RH  036%=      5-min Rain = 0
KPD3 200742Z 20013KT 30/13 A299 RMK A01 T02960130  RH  036%=      5-min Rain = 0
KPD3 200743Z 19012KT 30/13 A299 RMK A01 T02980130  RH  036%=      5-min Rain = 0
KPD3 200744Z 21009KT 30/13 A299 RMK A01 T02980131  RH  036%=      5-min Rain = 0
KPD3 200745Z 20009KT 30/13 A299 RMK A01 T02970130  RH  036%=      5-min Rain = 0
KPD3 200746Z 20010KT 30/13 A299 RMK A01 T02960130  RH  036%=      5-min Rain = 0
KPD3 200747Z 20010KT 30/13 A299 RMK A01 T02960130  RH  036%=      5-min Rain = 0
KPD3 200748Z 19011KT 30/13 A299 RMK A01 T02950130  RH  036%=      5-min Rain = 0
KPD3 200749Z 19013G18KT 30/13 A299 RMK A01 T02960130  RH  036%=      5-min Rain = 0
KPD3 200750Z 21018G23KT 30/13 A299 RMK A01 T02970131  RH  036%=      5-min Rain = 0
KPD3 200751Z 19015KT 30/13 A299 RMK A01 T03000131  RH  035%=      5-min Rain = 0
KPD3 200752Z 20011G16KT 30/13 A299 RMK A01 T03020131  RH  035%=      5-min Rain = 0
KPD3 200753Z 21014KT 30/13 A299 RMK A01 T03010131  RH  035%=      5-min Rain = 0
KPD3 200754Z 20013KT 30/13 A299 RMK A01 T03020131  RH  035%=      5-min Rain = 0
KPD3 200755Z 21012KT 30/13 A299 RMK A01 T03020131  RH  035%=      5-min Rain = 0
KPD3 200756Z 20011KT 30/13 A299 RMK A01 T03010131  RH  035%=      5-min Rain = 0
KPD3 200757Z 20011KT 30/13 A299 RMK A01 T03000131  RH  036%=      5-min Rain = 0
KPD3 200758Z 21011KT 30/13 A299 RMK A01 T02990131  RH  036%=      5-min Rain = 0
KPD3 200759Z 21013KT 30/13 A299 RMK A01 T02980131  RH  036%=      5-min Rain = 0
KPD3 200800Z 20010KT 30/13 A299 RMK A01 T02970131  RH  036%=      5-min Rain = 0
KPD3 200801Z 20012KT 30/13 A299 RMK A01 T02970132  RH  036%=      5-min Rain = 0
KPD3 200802Z 21009KT 30/13 A299 RMK A01 T02970132  RH  036%=      5-min Rain = 0
KPD3 200803Z 21010KT 30/13 A299 RMK A01 T02960132  RH  037%=      5-min Rain = 0
KPD3 200804Z 21009KT 30/13 A299 RMK A01 T02950132  RH  037%=      5-min Rain = 0
KPD3 200805Z 21009KT 29/13 A299 RMK A01 T02940132  RH  037%=      5-min Rain = 0
KPD3 200806Z 21010KT 29/13 A299 RMK A01 T02940131  RH  037%=      5-min Rain = 0
KPD3 200807Z 21010KT 29/13 A299 RMK A01 T02940131  RH  037%=      5-min Rain = 0
KPD3 200808Z 21010KT 29/13 A299 RMK A01 T02940131  RH  037%=      5-min Rain = 0
KPD3 200809Z 21010KT 29/13 A299 RMK A01 T02930132  RH  037%=      5-min Rain = 0
KPD3 200810Z 21009KT 29/13 A299 RMK A01 T02930132  RH  037%=      5-min Rain = 0
KPD3 200811Z 21010KT 29/13 A299 RMK A01 T02920132  RH  037%=      5-min Rain = 0
KPD3 200812Z 21011G16KT 29/13 A299 RMK A01 T02920132  RH  037%=      5-min Rain = 0
KPD3 200813Z 21013KT 29/13 A299 RMK A01 T02920132  RH  037%=      5-min Rain = 0
KPD3 200814Z 20012G17KT 29/13 A299 RMK A01 T02930132  RH  037%=      5-min Rain = 0
KPD3 200815Z 19008KT 30/13 A299 RMK A01 T02950133  RH  037%=      5-min Rain = 0
KPD3 200816Z 21009G15KT 29/13 A299 RMK A01 T02940133  RH  037%=      5-min Rain = 0
KPD3 200817Z 21012KT 29/13 A299 RMK A01 T02920132  RH  037%=      5-min Rain = 0
KPD3 200818Z 20012KT 29/13 A299 RMK A01 T02930133  RH  037%=      5-min Rain = 0
KPD3 200819Z 20014KT 29/13 A299 RMK A01 T02940133  RH  037%=      5-min Rain = 0
KPD3 200820Z 20011KT 30/13 A299 RMK A01 T02950133  RH  037%=      5-min Rain = 0
KPD3 200821Z 19012KT 30/13 A299 RMK A01 T02960133  RH  037%=      5-min Rain = 0
KPD3 200822Z 20016G21KT 30/13 A299 RMK A01 T02960134  RH  037%=      5-min Rain = 0
KPD3 200823Z 21013KT 30/13 A299 RMK A01 T02970133  RH  037%=      5-min Rain = 0
KPD3 200824Z 20012KT 30/13 A299 RMK A01 T02970133  RH  037%=      5-min Rain = 0
KPD3 200825Z 21011KT 30/13 A299 RMK A01 T02960133  RH  037%=      5-min Rain = 0
KPD3 200826Z 20011KT 30/13 A299 RMK A01 T02950133  RH  037%=      5-min Rain = 0
KPD3 200827Z 21014KT 29/13 A299 RMK A01 T02940133  RH  037%=      5-min Rain = 0
KPD3 200828Z 20013KT 29/13 A299 RMK A01 T02940133  RH  037%=      5-min Rain = 0
KPD3 200829Z 21012KT 30/13 A299 RMK A01 T02950133  RH  037%=      5-min Rain = 0
KPD3 200830Z 20011KT 30/13 A299 RMK A01 T02950134  RH  037%=      5-min Rain = 0
KPD3 200831Z 20010KT 29/13 A299 RMK A01 T02940133  RH  037%=      5-min Rain = 0
KPD3 200832Z 20013KT 29/13 A299 RMK A01 T02930133  RH  037%=      5-min Rain = 0
KPD3 200833Z 20012KT 29/13 A299 RMK A01 T02930133  RH  037%=      5-min Rain = 0
KPD3 200834Z 20010KT 29/13 A299 RMK A01 T02930133  RH  038%=      5-min Rain = 0
KPD3 200835Z 20010KT 29/13 A299 RMK A01 T02920133  RH  038%=      5-min Rain = 0
KPD3 200836Z 20010KT 29/13 A299 RMK A01 T02920134  RH  038%=      5-min Rain = 0
KPD3 200837Z 20010KT 29/13 A299 RMK A01 T02910133  RH  038%=      5-min Rain = 0
KPD3 200838Z 20011KT 29/13 A299 RMK A01 T02910133  RH  038%=      5-min Rain = 0
KPD3 200839Z 20011KT 29/13 A299 RMK A01 T02910133  RH  038%=      5-min Rain = 0
KPD3 200840Z 20012KT 29/13 A299 RMK A01 T02910134  RH  038%=      5-min Rain = 0
KPD3 200841Z 19014KT 29/13 A299 RMK A01 T02920134  RH  038%=      5-min Rain = 0
KPD3 200842Z 20012KT 29/13 A299 RMK A01 T02930134  RH  038%=      5-min Rain = 0
KPD3 200843Z 20011KT 29/13 A299 RMK A01 T02940134  RH  038%=      5-min Rain = 0
KPD3 200844Z 19012KT 29/13 A299 RMK A01 T02920134  RH  038%=      5-min Rain = 0
KPD3 200845Z 21010KT 29/13 A299 RMK A01 T02920134  RH  038%=      5-min Rain = 0
KPD3 200846Z 20009KT 29/13 A299 RMK A01 T02920134  RH  038%=      5-min Rain = 0
KPD3 200847Z 19011KT 29/13 A299 RMK A01 T02900134  RH  038%=      5-min Rain = 0
KPD3 200848Z 21013KT 29/13 A299 RMK A01 T02900134  RH  038%=      5-min Rain = 0
KPD3 200849Z 21011KT 29/13 A299 RMK A01 T02900134  RH  038%=      5-min Rain = 0
KPD3 200850Z 20010KT 29/13 A299 RMK A01 T02910134  RH  038%=      5-min Rain = 0
KPD3 200851Z 18010KT 29/13 A299 RMK A01 T02920134  RH  038%=      5-min Rain = 0
KPD3 200852Z 19010KT 29/13 A299 RMK A01 T02910134  RH  038%=      5-min Rain = 0
KPD3 200853Z 19012KT 29/13 A299 RMK A01 T02900134  RH  038%=      5-min Rain = 0
KPD3 200854Z 21012KT 29/14 A299 RMK A01 T02900135  RH  039%=      5-min Rain = 0
KPD3 200855Z 19010KT 29/14 A299 RMK A01 T02910135  RH  038%=      5-min Rain = 0
KPD3 200856Z 18008KT 29/14 A299 RMK A01 T02910135  RH  038%=      5-min Rain = 0
KPD3 200857Z 19008KT 29/14 A299 RMK A01 T02900135  RH  039%=      5-min Rain = 0
KPD3 200858Z 20008KT 29/13 A299 RMK A01 T02880134  RH  039%=      5-min Rain = 0
KPD3 200859Z 19007KT 29/13 A299 RMK A01 T02860134  RH  039%=      5-min Rain = 0
KPD3 200900Z 19007KT 28/13 A299 RMK A01 T02840134  RH  040%=      5-min Rain = 0
KPD3 200901Z 18008KT 28/13 A299 RMK A01 T02820134  RH  040%=      5-min Rain = 0
KPD3 200902Z 19007KT 28/13 A299 RMK A01 T02810134  RH  040%=      5-min Rain = 0
KPD3 200903Z 18008KT 28/13 A299 RMK A01 T02810134  RH  040%=      5-min Rain = 0
KPD3 200904Z 19008KT 28/14 A299 RMK A01 T02800135  RH  041%=      5-min Rain = 0
KPD3 200905Z 19009KT 28/13 A299 RMK A01 T02800134  RH  041%=      5-min Rain = 0
KPD3 200906Z 19008KT 28/14 A299 RMK A01 T02810135  RH  041%=      5-min Rain = 0
KPD3 200907Z 19007KT 28/14 A299 RMK A01 T02820135  RH  041%=      5-min Rain = 0
KPD3 200908Z 20008KT 28/14 A299 RMK A01 T02810135  RH  041%=      5-min Rain = 0
KPD3 200909Z 18007KT 28/14 A299 RMK A01 T02800135  RH  041%=      5-min Rain = 0
KPD3 200910Z 18009KT 28/14 A299 RMK A01 T02790135  RH  041%=      5-min Rain = 0
KPD3 200911Z 19011KT 28/14 A299 RMK A01 T02790136  RH  041%=      5-min Rain = 0
KPD3 200912Z 18010KT 28/14 A299 RMK A01 T02830137  RH  041%=      5-min Rain = 0
KPD3 200913Z 18010KT 29/14 A299 RMK A01 T02860136  RH  040%=      5-min Rain = 0
KPD3 200914Z 18008KT 29/14 A299 RMK A01 T02880137  RH  040%=      5-min Rain = 0
KPD3 200915Z 18008KT 29/14 A299 RMK A01 T02870136  RH  040%=      5-min Rain = 0
KPD3 200916Z 17008KT 29/14 A299 RMK A01 T02850136  RH  040%=      5-min Rain = 0
KPD3 200917Z 17007KT 28/14 A299 RMK A01 T02830136  RH  040%=      5-min Rain = 0
KPD3 200918Z 19010KT 28/14 A299 RMK A01 T02820136  RH  041%=      5-min Rain = 0
KPD3 200919Z 17008KT 28/14 A299 RMK A01 T02830137  RH  041%=      5-min Rain = 0
KPD3 200920Z 18007KT 29/14 A299 RMK A01 T02850137  RH  040%=      5-min Rain = 0
KPD3 200921Z 17006KT 29/14 A299 RMK A01 T02860137  RH  040%=      5-min Rain = 0
KPD3 200922Z 17010KT 29/14 A299 RMK A01 T02850137  RH  040%=      5-min Rain = 0
KPD3 200923Z 17009KT 29/14 A299 RMK A01 T02850137  RH  040%=      5-min Rain = 0
KPD3 200924Z 17009KT 29/14 A299 RMK A01 T02850137  RH  040%=      5-min Rain = 0
KPD3 200925Z 18008KT 29/14 A299 RMK A01 T02850137  RH  040%=      5-min Rain = 0
KPD3 200926Z 18007KT 29/14 A299 RMK A01 T02860137  RH  040%=      5-min Rain = 0
KPD3 200927Z 20009KT 29/14 A299 RMK A01 T02850137  RH  040%=      5-min Rain = 0
KPD3 200928Z 17009KT 28/14 A299 RMK A01 T02840137  RH  041%=      5-min Rain = 0
KPD3 200929Z 18007KT 28/14 A299 RMK A01 T02840137  RH  041%=      5-min Rain = 0
KPD3 200930Z 19007KT 28/14 A299 RMK A01 T02840137  RH  041%=      5-min Rain = 0
KPD3 200931Z 19007KT 28/14 A299 RMK A01 T02840138  RH  041%=      5-min Rain = 0
KPD3 200932Z 19007KT 28/14 A299 RMK A01 T02830138  RH  041%=      5-min Rain = 0
KPD3 200933Z 18007KT 28/14 A299 RMK A01 T02830137  RH  041%=      5-min Rain = 0
KPD3 200934Z 19007KT 28/14 A299 RMK A01 T02830138  RH  041%=      5-min Rain = 0
KPD3 200935Z 18007KT 28/14 A299 RMK A01 T02830137  RH  041%=      5-min Rain = 0
KPD3 200936Z 17005KT 28/14 A299 RMK A01 T02820137  RH  041%=      5-min Rain = 0
KPD3 200937Z 19004KT 28/14 A299 RMK A01 T02810137  RH  041%=      5-min Rain = 0
KPD3 200938Z 18005KT 28/14 A299 RMK A01 T02800137  RH  041%=      5-min Rain = 0
KPD3 200939Z 18005KT 28/14 A299 RMK A01 T02780137  RH  042%=      5-min Rain = 0
KPD3 200940Z 19008KT 28/14 A299 RMK A01 T02760136  RH  042%=      5-min Rain = 0
KPD3 200941Z 18007KT 28/14 A299 RMK A01 T02780138  RH  042%=      5-min Rain = 0
KPD3 200942Z 17005KT 28/14 A299 RMK A01 T02820138  RH  041%=      5-min Rain = 0
KPD3 200943Z 16006KT 28/14 A299 RMK A01 T02820137  RH  041%=      5-min Rain = 0
KPD3 200944Z 17006KT 28/14 A299 RMK A01 T02790137  RH  042%=      5-min Rain = 0
KPD3 200945Z 18007KT 28/14 A299 RMK A01 T02760136  RH  042%=      5-min Rain = 0
KPD3 200946Z 19007KT 27/14 A299 RMK A01 T02740136  RH  043%=      5-min Rain = 0
KPD3 200947Z 17005KT 28/14 A299 RMK A01 T02780138  RH  042%=      5-min Rain = 0
KPD3 200948Z 17007KT 28/14 A299 RMK A01 T02810138  RH  042%=      5-min Rain = 0
KPD3 200949Z 17006KT 28/14 A299 RMK A01 T02800138  RH  042%=      5-min Rain = 0
KPD3 200950Z 17006KT 28/14 A299 RMK A01 T02800138  RH  042%=      5-min Rain = 0
KPD3 200951Z 17008KT 28/14 A299 RMK A01 T02800138  RH  042%=      5-min Rain = 0
KPD3 200952Z 17006KT 28/14 A299 RMK A01 T02790137  RH  042%=      5-min Rain = 0
KPD3 200953Z 16006KT 28/14 A299 RMK A01 T02770137  RH  042%=      5-min Rain = 0
KPD3 200954Z 17005KT 28/14 A299 RMK A01 T02770137  RH  042%=      5-min Rain = 0
KPD3 200955Z 18005KT 28/14 A299 RMK A01 T02790138  RH  042%=      5-min Rain = 0
KPD3 200956Z 17004KT 28/14 A299 RMK A01 T02820138  RH  041%=      5-min Rain = 0
KPD3 200957Z 17004KT 28/14 A299 RMK A01 T02840138  RH  041%=      5-min Rain = 0
KPD3 200958Z 17004KT 28/14 A299 RMK A01 T02830138  RH  041%=      5-min Rain = 0
KPD3 200959Z 17005KT 28/14 A299 RMK A01 T02810137  RH  041%=      5-min Rain = 0
KPD3 201000Z 17005KT 28/14 A299 RMK A01 T02780137  RH  042%=      5-min Rain = 0
KPD3 201001Z 17005KT 28/14 A299 RMK A01 T02750137  RH  043%=      5-min Rain = 0
KPD3 201002Z 17007KT 27/14 A299 RMK A01 T02740137  RH  043%=      5-min Rain = 0
KPD3 201003Z 16006KT 27/14 A299 RMK A01 T02730137  RH  043%=      5-min Rain = 0
KPD3 201004Z 17006KT 27/14 A299 RMK A01 T02730137  RH  043%=      5-min Rain = 0
KPD3 201005Z 16006KT 27/14 A299 RMK A01 T02720138  RH  043%=      5-min Rain = 0
KPD3 201006Z 18005KT 27/14 A299 RMK A01 T02720138  RH  044%=      5-min Rain = 0
KPD3 201007Z 17006KT 27/14 A299 RMK A01 T02730138  RH  043%=      5-min Rain = 0
KPD3 201008Z 16007KT 28/14 A299 RMK A01 T02760139  RH  043%=      5-min Rain = 0
KPD3 201009Z 17008KT 28/14 A299 RMK A01 T02810139  RH  042%=      5-min Rain = 0
KPD3 201010Z 16008KT 29/14 A299 RMK A01 T02860140  RH  041%=      5-min Rain = 0
KPD3 201011Z 17006KT 29/14 A299 RMK A01 T02860139  RH  041%=      5-min Rain = 0
KPD3 201012Z 16008KT 29/14 A299 RMK A01 T02850139  RH  041%=      5-min Rain = 0
KPD3 201013Z 16009KT 28/14 A299 RMK A01 T02820139  RH  041%=      5-min Rain = 0
KPD3 201014Z 17009KT 28/14 A299 RMK A01 T02810139  RH  042%=      5-min Rain = 0
KPD3 201015Z 17007KT 28/14 A299 RMK A01 T02790139  RH  042%=      5-min Rain = 0
KPD3 201016Z 18008KT 28/14 A299 RMK A01 T02770139  RH  043%=      5-min Rain = 0
KPD3 201017Z 17009KT 28/14 A299 RMK A01 T02770139  RH  043%=      5-min Rain = 0
KPD3 201018Z 18009KT 28/14 A299 RMK A01 T02770139  RH  043%=      5-min Rain = 0
KPD3 201019Z 18007KT 28/14 A299 RMK A01 T02760139  RH  043%=      5-min Rain = 0
KPD3 201020Z 17009KT 28/14 A299 RMK A01 T02750139  RH  043%=      5-min Rain = 0
KPD3 201021Z 17009KT 28/14 A299 RMK A01 T02750139  RH  043%=      5-min Rain = 0
KPD3 201022Z 18009KT 28/14 A299 RMK A01 T02750140  RH  043%=      5-min Rain = 0
KPD3 201023Z 17009KT 28/14 A299 RMK A01 T02760140  RH  043%=      5-min Rain = 0
KPD3 201024Z 18009KT 28/14 A299 RMK A01 T02770140  RH  043%=      5-min Rain = 0
KPD3 201025Z 18009KT 28/14 A299 RMK A01 T02770140  RH  043%=      5-min Rain = 0
KPD3 201026Z 18009KT 28/14 A299 RMK A01 T02770140  RH  043%=      5-min Rain = 0
KPD3 201027Z 18010KT 28/14 A299 RMK A01 T02750140  RH  043%=      5-min Rain = 0
KPD3 201028Z 18011KT 27/14 A299 RMK A01 T02740140  RH  044%=      5-min Rain = 0
KPD3 201029Z 18012KT 27/14 A299 RMK A01 T02740140  RH  044%=      5-min Rain = 0
KPD3 201030Z 17010KT 28/14 A299 RMK A01 T02760141  RH  044%=      5-min Rain = 0
KPD3 201031Z 18011KT 28/14 A299 RMK A01 T02790141  RH  043%=      5-min Rain = 0
KPD3 201032Z 18011KT 28/14 A299 RMK A01 T02780141  RH  043%=      5-min Rain = 0
KPD3 201033Z 18012KT 28/14 A299 RMK A01 T02770141  RH  043%=      5-min Rain = 0
KPD3 201034Z 18011KT 28/14 A299 RMK A01 T02770141  RH  043%=      5-min Rain = 0
KPD3 201035Z 18012KT 28/14 A299 RMK A01 T02780141  RH  043%=      5-min Rain = 0
KPD3 201036Z 18012KT 28/14 A299 RMK A01 T02780141  RH  043%=      5-min Rain = 0
KPD3 201037Z 18014KT 28/14 A299 RMK A01 T02780141  RH  043%=      5-min Rain = 0
KPD3 201038Z 18015KT 28/14 A299 RMK A01 T02800142  RH  043%=      5-min Rain = 0
KPD3 201039Z 18015KT 28/14 A299 RMK A01 T02830142  RH  042%=      5-min Rain = 0
KPD3 201040Z 19016KT 28/14 A299 RMK A01 T02840142  RH  042%=      5-min Rain = 0
KPD3 201041Z 18015KT 29/14 A299 RMK A01 T02860143  RH  042%=      5-min Rain = 0
KPD3 201042Z 18014KT 29/14 A299 RMK A01 T02870142  RH  041%=      5-min Rain = 0
KPD3 201043Z 19015KT 29/14 A299 RMK A01 T02860142  RH  041%=      5-min Rain = 0
KPD3 201044Z 20014KT 28/14 A299 RMK A01 T02840142  RH  042%=      5-min Rain = 0
KPD3 201045Z 20015KT 28/14 A299 RMK A01 T02830142  RH  042%=      5-min Rain = 0
KPD3 201046Z 19015KT 28/14 A299 RMK A01 T02820143  RH  042%=      5-min Rain = 0
KPD3 201047Z 20016KT 28/14 A299 RMK A01 T02840144  RH  042%=      5-min Rain = 0
KPD3 201048Z 19013KT 29/14 A299 RMK A01 T02850143  RH  042%=      5-min Rain = 0
KPD3 201049Z 20015KT 29/14 A299 RMK A01 T02850143  RH  042%=      5-min Rain = 0
KPD3 201050Z 20014KT 28/14 A299 RMK A01 T02840143  RH  042%=      5-min Rain = 0
KPD3 201051Z 20015KT 28/14 A299 RMK A01 T02830143  RH  042%=      5-min Rain = 0
KPD3 201052Z 20015KT 28/14 A299 RMK A01 T02840144  RH  042%=      5-min Rain = 0
KPD3 201053Z 20016KT 28/14 A299 RMK A01 T02840144  RH  042%=      5-min Rain = 0
KPD3 201054Z 20014KT 29/14 A299 RMK A01 T02850144  RH  042%=      5-min Rain = 0
KPD3 201055Z 20013KT 29/14 A299 RMK A01 T02850144  RH  042%=      5-min Rain = 0
KPD3 201056Z 20014KT 29/14 A299 RMK A01 T02850144  RH  042%=      5-min Rain = 0
KPD3 201057Z 20012KT 28/14 A299 RMK A01 T02840144  RH  042%=      5-min Rain = 0
KPD3 201058Z 20013KT 28/14 A299 RMK A01 T02830144  RH  043%=      5-min Rain = 0
KPD3 201059Z 20016KT 28/14 A299 RMK A01 T02820144  RH  043%=      5-min Rain = 0
KPD3 201100Z 20016KT 28/15 A299 RMK A01 T02830145  RH  043%=      5-min Rain = 0
KPD3 201101Z 20014KT 28/15 A299 RMK A01 T02840145  RH  043%=      5-min Rain = 0
KPD3 201102Z 20015KT 28/15 A299 RMK A01 T02840145  RH  043%=      5-min Rain = 0
KPD3 201103Z 20014KT 28/15 A299 RMK A01 T02840145  RH  043%=      5-min Rain = 0
KPD3 201104Z 20014KT 28/15 A299 RMK A01 T02840145  RH  043%=      5-min Rain = 0
KPD3 201105Z 20015KT 28/15 A299 RMK A01 T02830145  RH  043%=      5-min Rain = 0
KPD3 201106Z 20016KT 28/15 A299 RMK A01 T02830145  RH  043%=      5-min Rain = 0
KPD3 201107Z 19015KT 28/15 A299 RMK A01 T02830145  RH  043%=      5-min Rain = 0
KPD3 201108Z 20017KT 28/15 A299 RMK A01 T02820146  RH  043%=      5-min Rain = 0
KPD3 201109Z 20014KT 28/15 A299 RMK A01 T02830146  RH  043%=      5-min Rain = 0
KPD3 201110Z 21013KT 28/15 A299 RMK A01 T02830146  RH  043%=      5-min Rain = 0
KPD3 201111Z 21013KT 28/15 A299 RMK A01 T02820145  RH  043%=      5-min Rain = 0
KPD3 201112Z 20012KT 28/15 A299 RMK A01 T02800145  RH  044%=      5-min Rain = 0
KPD3 201113Z 20014KT 28/15 A299 RMK A01 T02790145  RH  044%=      5-min Rain = 0
KPD3 201114Z 21013KT 28/15 A299 RMK A01 T02790145  RH  044%=      5-min Rain = 0
KPD3 201115Z 20015G20KT 28/15 A299 RMK A01 T02790146  RH  044%=      5-min Rain = 0
KPD3 201116Z 20015KT 28/15 A299 RMK A01 T02800146  RH  044%=      5-min Rain = 0
KPD3 201117Z 20012KT 28/15 A299 RMK A01 T02810146  RH  044%=      5-min Rain = 0
KPD3 201118Z 20012KT 28/15 A299 RMK A01 T02810146  RH  044%=      5-min Rain = 0
KPD3 201119Z 19013KT 28/15 A299 RMK A01 T02810147  RH  044%=      5-min Rain = 0
KPD3 201120Z 20012KT 28/15 A299 RMK A01 T02810146  RH  044%=      5-min Rain = 0
KPD3 201121Z 20012KT 28/15 A299 RMK A01 T02810146  RH  044%=      5-min Rain = 0
KPD3 201122Z 20010KT 28/15 A299 RMK A01 T02800146  RH  044%=      5-min Rain = 0
KPD3 201123Z 20012KT 28/15 A299 RMK A01 T02780146  RH  044%=      5-min Rain = 0
KPD3 201124Z 20010KT 28/15 A2991 RMK A01 T02780146  RH  045%=      5-min Rain = 0
KPD3 201125Z 19010KT 28/15 A2991 RMK A01 T02780147  RH  045%=      5-min Rain = 0
KPD3 201126Z 19010KT 28/15 A2991 RMK A01 T02780147  RH  045%=      5-min Rain = 0
KPD3 201127Z 20008KT 28/15 A2991 RMK A01 T02780147  RH  045%=      5-min Rain = 0
KPD3 201128Z 20009KT 28/15 A2991 RMK A01 T02770147  RH  045%=      5-min Rain = 0
KPD3 201129Z 19010KT 28/15 A2991 RMK A01 T02770147  RH  045%=      5-min Rain = 0
KPD3 201130Z 19008KT 28/15 A2991 RMK A01 T02770147  RH  045%=      5-min Rain = 0
KPD3 201131Z 18007KT 28/15 A2991 RMK A01 T02770147  RH  045%=      5-min Rain = 0
KPD3 201132Z 18007KT 28/15 A2991 RMK A01 T02770146  RH  045%=      5-min Rain = 0
KPD3 201133Z 19010KT 28/15 A2991 RMK A01 T02760146  RH  045%=      5-min Rain = 0
KPD3 201134Z 18011KT 28/15 A2991 RMK A01 T02760147  RH  045%=      5-min Rain = 0
KPD3 201135Z 18011G16KT 28/15 A2991 RMK A01 T02770147  RH  045%=      5-min Rain = 0
KPD3 201136Z 19012KT 28/15 A2991 RMK A01 T02780148  RH  045%=      5-min Rain = 0
KPD3 201137Z 19007KT 28/15 A2991 RMK A01 T02790147  RH  044%=      5-min Rain = 0
KPD3 201138Z 18006KT 28/15 A2991 RMK A01 T02790147  RH  044%=      5-min Rain = 0
KPD3 201139Z 18005KT 28/15 A2991 RMK A01 T02780147  RH  045%=      5-min Rain = 0
KPD3 201140Z 18004KT 28/15 A2991 RMK A01 T02760146  RH  045%=      5-min Rain = 0
KPD3 201141Z 18004KT 28/15 A2991 RMK A01 T02750146  RH  045%=      5-min Rain = 0
KPD3 201142Z 19005KT 27/15 A2991 RMK A01 T02740147  RH  046%=      5-min Rain = 0
KPD3 201143Z 18006KT 27/15 A2991 RMK A01 T02730147  RH  046%=      5-min Rain = 0
KPD3 201144Z 17004KT 27/15 A2991 RMK A01 T02720147  RH  046%=      5-min Rain = 0
KPD3 201145Z 15004KT 27/15 A2992 RMK A01 T02720147  RH  046%=      5-min Rain = 0
KPD3 201146Z 15004KT 27/15 A2992 RMK A01 T02700146  RH  047%=      5-min Rain = 0
KPD3 201147Z 16005KT 27/15 A2992 RMK A01 T02690146  RH  047%=      5-min Rain = 0
KPD3 201148Z 17006KT 27/15 A2992 RMK A01 T02680146  RH  047%=      5-min Rain = 0
KPD3 201149Z 18007KT 27/15 A2992 RMK A01 T02690146  RH  047%=      5-min Rain = 0
KPD3 201150Z 19009KT 27/15 A2992 RMK A01 T02690147  RH  047%=      5-min Rain = 0
KPD3 201151Z 19008KT 27/15 A2992 RMK A01 T02710147  RH  047%=      5-min Rain = 0
KPD3 201152Z 19007KT 27/15 A2992 RMK A01 T02720147  RH  046%=      5-min Rain = 0
KPD3 201153Z 18009KT 27/15 A2992 RMK A01 T02720147  RH  046%=      5-min Rain = 0
KPD3 201154Z 18008KT 27/15 A2992 RMK A01 T02720147  RH  046%=      5-min Rain = 0
KPD3 201155Z 18008KT 27/15 A2992 RMK A01 T02720147  RH  046%=      5-min Rain = 0
KPD3 201156Z 18007KT 27/15 A2992 RMK A01 T02720148  RH  046%=      5-min Rain = 0
KPD3 201157Z 18009KT 27/15 A2992 RMK A01 T02720147  RH  046%=      5-min Rain = 0
KPD3 201158Z 18008KT 27/15 A2992 RMK A01 T02720147  RH  047%=      5-min Rain = 0
KPD3 201159Z 18008KT 27/15 A2992 RMK A01 T02710147  RH  047%=      5-min Rain = 0
KPD3 201200Z 18009KT 27/15 A2992 RMK A01 T02700147  RH  047%=      5-min Rain = 0
KPD3 201201Z 19008KT 27/15 A2992 RMK A01 T02700147  RH  047%=      5-min Rain = 0
KPD3 201202Z 19008KT 27/15 A2992 RMK A01 T02700147  RH  047%=      5-min Rain = 0
KPD3 201203Z 19008KT 27/15 A2992 RMK A01 T02710147  RH  047%=      5-min Rain = 0
KPD3 201204Z 19008KT 27/15 A2992 RMK A01 T02700147  RH  047%=      5-min Rain = 0
KPD3 201205Z 19008KT 27/15 A2992 RMK A01 T02690147  RH  047%=      5-min Rain = 0
KPD3 201206Z 19008KT 27/15 A2992 RMK A01 T02670147  RH  048%=      5-min Rain = 0
KPD3 201207Z 20011KT 27/15 A2992 RMK A01 T02670148  RH  048%=      5-min Rain = 0
KPD3 201208Z 19008KT 27/15 A2992 RMK A01 T02680148  RH  048%=      5-min Rain = 0
KPD3 201209Z 19009KT 27/15 A2992 RMK A01 T02690148  RH  048%=      5-min Rain = 0
KPD3 201210Z 20010KT 27/15 A2992 RMK A01 T02690148  RH  048%=      5-min Rain = 0
KPD3 201211Z 20011KT 27/15 A2992 RMK A01 T02690148  RH  047%=      5-min Rain = 0
KPD3 201212Z 20009KT 27/15 A2992 RMK A01 T02700149  RH  047%=      5-min Rain = 0
KPD3 201213Z 20010KT 27/15 A2992 RMK A01 T02710149  RH  047%=      5-min Rain = 0
KPD3 201214Z 21010KT 27/15 A2992 RMK A01 T02720149  RH  047%=      5-min Rain = 0
KPD3 201215Z 20011KT 27/15 A2992 RMK A01 T02720149  RH  047%=      5-min Rain = 0
KPD3 201216Z 20010KT 27/15 A2992 RMK A01 T02730149  RH  047%=      5-min Rain = 0
KPD3 201217Z 21010KT 27/15 A2992 RMK A01 T02730149  RH  047%=      5-min Rain = 0
KPD3 201218Z 20011KT 27/15 A2992 RMK A01 T02740149  RH  046%=      5-min Rain = 0
KPD3 201219Z 21011KT 27/15 A2992 RMK A01 T02740149  RH  046%=      5-min Rain = 0
KPD3 201220Z 20010KT 28/15 A2991 RMK A01 T02760150  RH  046%=      5-min Rain = 0
KPD3 201221Z 20012KT 28/15 A2991 RMK A01 T02770150  RH  046%=      5-min Rain = 0
KPD3 201222Z 20011KT 28/15 A2991 RMK A01 T02770150  RH  046%=      5-min Rain = 0
KPD3 201223Z 21011KT 28/15 A2991 RMK A01 T02780150  RH  046%=      5-min Rain = 0
KPD3 201224Z 21011KT 28/15 A2991 RMK A01 T02780150  RH  046%=      5-min Rain = 0
KPD3 201225Z 21011KT 28/15 A2991 RMK A01 T02780150  RH  046%=      5-min Rain = 0
KPD3 201226Z 21013KT 28/15 A2991 RMK A01 T02780150  RH  046%=      5-min Rain = 0
KPD3 201227Z 20013KT 28/15 A2991 RMK A01 T02790150  RH  045%=      5-min Rain = 0
KPD3 201228Z 21011KT 28/15 A2991 RMK A01 T02800151  RH  045%=      5-min Rain = 0
KPD3 201229Z 20012KT 28/15 A2991 RMK A01 T02800151  RH  045%=      5-min Rain = 0
KPD3 201230Z 21014KT 28/15 A2991 RMK A01 T02800151  RH  045%=      5-min Rain = 0
KPD3 201231Z 21016KT 28/15 A2991 RMK A01 T02800151  RH  045%=      5-min Rain = 0
KPD3 201232Z 21015KT 28/15 A2991 RMK A01 T02810151  RH  045%=      5-min Rain = 0
KPD3 201233Z 21016KT 28/15 A2991 RMK A01 T02810151  RH  045%=      5-min Rain = 0
KPD3 201234Z 21014KT 28/15 A2991 RMK A01 T02820152  RH  045%=      5-min Rain = 0
KPD3 201235Z 21013KT 28/15 A2991 RMK A01 T02820152  RH  045%=      5-min Rain = 0
KPD3 201236Z 21012KT 28/15 A2991 RMK A01 T02820152  RH  045%=      5-min Rain = 0
KPD3 201237Z 20014KT 28/15 A2991 RMK A01 T02820152  RH  045%=      5-min Rain = 0
KPD3 201238Z 20015KT 28/15 A2991 RMK A01 T02820152  RH  045%=      5-min Rain = 0
KPD3 201239Z 20013KT 28/15 A2991 RMK A01 T02830152  RH  045%=      5-min Rain = 0
KPD3 201240Z 21015G21KT 28/15 A2991 RMK A01 T02830152  RH  045%=      5-min Rain = 0
KPD3 201241Z 21015KT 28/15 A2992 RMK A01 T02830152  RH  045%=      5-min Rain = 0
KPD3 201242Z 21014KT 28/15 A2992 RMK A01 T02830153  RH  045%=      5-min Rain = 0
KPD3 201243Z 20014KT 28/15 A2992 RMK A01 T02840153  RH  045%=      5-min Rain = 0
KPD3 201244Z 21011KT 28/15 A2992 RMK A01 T02840153  RH  045%=      5-min Rain = 0
KPD3 201245Z 21013KT 28/15 A2992 RMK A01 T02840154  RH  045%=      5-min Rain = 0
KPD3 201246Z 21013KT 28/15 A2992 RMK A01 T02840154  RH  045%=      5-min Rain = 0
KPD3 201247Z 20011KT 28/15 A2992 RMK A01 T02840154  RH  045%=      5-min Rain = 0
KPD3 201248Z 19012KT 29/15 A2992 RMK A01 T02850154  RH  045%=      5-min Rain = 0
KPD3 201249Z 20010KT 29/15 A2992 RMK A01 T02850154  RH  045%=      5-min Rain = 0
KPD3 201250Z 21010KT 29/15 A2992 RMK A01 T02850154  RH  045%=      5-min Rain = 0
KPD3 201251Z 20010KT 29/16 A2992 RMK A01 T02850155  RH  045%=      5-min Rain = 0
KPD3 201252Z 20009KT 29/16 A2992 RMK A01 T02860155  RH  045%=      5-min Rain = 0
KPD3 201253Z 19012KT 29/16 A2992 RMK A01 T02860155  RH  045%=      5-min Rain = 0
KPD3 201254Z 20013KT 29/16 A2992 RMK A01 T02870155  RH  045%=      5-min Rain = 0
KPD3 201255Z 20012KT 29/16 A2992 RMK A01 T02870155  RH  045%=      5-min Rain = 0
KPD3 201256Z 20012KT 29/16 A2992 RMK A01 T02870155  RH  045%=      5-min Rain = 0
KPD3 201257Z 18011KT 29/16 A2992 RMK A01 T02870155  RH  045%=      5-min Rain = 0
KPD3 201258Z 18011KT 29/16 A2992 RMK A01 T02870155  RH  045%=      5-min Rain = 0
KPD3 201259Z 20014KT 29/16 A2992 RMK A01 T02870155  RH  045%=      5-min Rain = 0
KPD3 201300Z 20014KT 29/16 A2992 RMK A01 T02870155  RH  045%=      5-min Rain = 0
KPD3 201301Z 20013KT 29/16 A2992 RMK A01 T02870155  RH  045%=      5-min Rain = 0
KPD3 201302Z 19011KT 29/16 A2992 RMK A01 T02870156  RH  045%=      5-min Rain = 0
KPD3 201303Z 18009KT 29/16 A2993 RMK A01 T02870156  RH  045%=      5-min Rain = 0
KPD3 201304Z 19010KT 29/16 A2993 RMK A01 T02880157  RH  045%=      5-min Rain = 0
KPD3 201305Z 18011KT 29/16 A2993 RMK A01 T02890156  RH  045%=      5-min Rain = 0
KPD3 201306Z 19010KT 29/16 A2993 RMK A01 T02890156  RH  045%=      5-min Rain = 0
KPD3 201307Z 18012KT 29/16 A2993 RMK A01 T02890156  RH  045%=      5-min Rain = 0
KPD3 201308Z 19014KT 29/16 A2993 RMK A01 T02890157  RH  045%=      5-min Rain = 0
KPD3 201309Z 19012KT 29/16 A2993 RMK A01 T02890158  RH  045%=      5-min Rain = 0
KPD3 201310Z 19014KT 29/16 A2993 RMK A01 T02890158  RH  045%=      5-min Rain = 0
KPD3 201311Z 20013KT 29/16 A2993 RMK A01 T02880157  RH  045%=      5-min Rain = 0
KPD3 201312Z 20011KT 29/16 A2992 RMK A01 T02880158  RH  045%=      5-min Rain = 0
KPD3 201313Z 19012KT 29/16 A2992 RMK A01 T02880158  RH  045%=      5-min Rain = 0
KPD3 201314Z 20014KT 29/16 A2992 RMK A01 T02890158  RH  045%=      5-min Rain = 0
KPD3 201315Z 20014KT 29/16 A2992 RMK A01 T02890158  RH  045%=      5-min Rain = 0
KPD3 201316Z 20014KT 29/16 A2992 RMK A01 T02880158  RH  045%=      5-min Rain = 0
KPD3 201317Z 20013KT 29/16 A2992 RMK A01 T02880158  RH  045%=      5-min Rain = 0
KPD3 201318Z 19015KT 29/16 A2992 RMK A01 T02880158  RH  045%=      5-min Rain = 0
KPD3 201319Z 19015KT 29/16 A2992 RMK A01 T02880158  RH  045%=      5-min Rain = 0
KPD3 201320Z 19011KT 29/16 A2992 RMK A01 T02880158  RH  045%=      5-min Rain = 0
KPD3 201321Z 21011KT 29/16 A2992 RMK A01 T02880159  RH  046%=      5-min Rain = 0
KPD3 201322Z 20012KT 29/16 A2992 RMK A01 T02890159  RH  045%=      5-min Rain = 0
KPD3 201323Z 20015KT 29/16 A2992 RMK A01 T02900159  RH  045%=      5-min Rain = 0
KPD3 201324Z 20014KT 29/16 A2992 RMK A01 T02900159  RH  045%=      5-min Rain = 0
KPD3 201325Z 19011KT 29/16 A2992 RMK A01 T02900159  RH  045%=      5-min Rain = 0
KPD3 201326Z 20013KT 29/16 A2992 RMK A01 T02910159  RH  045%=      5-min Rain = 0
KPD3 201327Z 20013KT 29/16 A2992 RMK A01 T02910159  RH  045%=      5-min Rain = 0
KPD3 201328Z 20011KT 29/16 A2992 RMK A01 T02920159  RH  045%=      5-min Rain = 0
KPD3 201329Z 20013KT 29/16 A2992 RMK A01 T02910159  RH  045%=      5-min Rain = 0
KPD3 201330Z 21012KT 29/16 A2992 RMK A01 T02920159  RH  045%=      5-min Rain = 0
KPD3 201331Z 21012KT 29/16 A2992 RMK A01 T02920159  RH  045%=      5-min Rain = 0
KPD3 201332Z 20009KT 29/16 A2992 RMK A01 T02920160  RH  045%=      5-min Rain = 0
KPD3 201333Z 21015G20KT 29/16 A2992 RMK A01 T02940161  RH  045%=      5-min Rain = 0
KPD3 201334Z 21013KT 30/16 A2992 RMK A01 T02950160  RH  044%=      5-min Rain = 0
KPD3 201335Z 21013KT 29/16 A2992 RMK A01 T02940160  RH  044%=      5-min Rain = 0
KPD3 201336Z 20011KT 29/16 A2992 RMK A01 T02940160  RH  044%=      5-min Rain = 0
KPD3 201337Z 21013KT 29/16 A2992 RMK A01 T02940160  RH  044%=      5-min Rain = 0
KPD3 201338Z 22014KT 30/16 A2992 RMK A01 T02950160  RH  044%=      5-min Rain = 0
KPD3 201339Z 20012KT 30/16 A2992 RMK A01 T02950160  RH  044%=      5-min Rain = 0
KPD3 201340Z 21013KT 30/16 A2992 RMK A01 T02960160  RH  044%=      5-min Rain = 0
KPD3 201341Z 22011KT 30/16 A2992 RMK A01 T02960160  RH  044%=      5-min Rain = 0
KPD3 201342Z 23011KT 30/16 A2992 RMK A01 T02960161  RH  044%=      5-min Rain = 0
KPD3 201343Z 22013KT 30/16 A2992 RMK A01 T02970160  RH  044%=      5-min Rain = 0
KPD3 201344Z 21016KT 30/16 A2992 RMK A01 T02970160  RH  044%=      5-min Rain = 0
KPD3 201345Z 21015KT 30/16 A2992 RMK A01 T02970160  RH  044%=      5-min Rain = 0
KPD3 201346Z 22014KT 30/16 A2992 RMK A01 T02970160  RH  044%=      5-min Rain = 0
KPD3 201347Z 22015KT 30/16 A2992 RMK A01 T02970160  RH  044%=      5-min Rain = 0
KPD3 201348Z 22015KT 30/16 A2992 RMK A01 T02980160  RH  043%=      5-min Rain = 0
KPD3 201349Z 23015KT 30/16 A2992 RMK A01 T02980160  RH  043%=      5-min Rain = 0
KPD3 201350Z 23016KT 30/16 A2992 RMK A01 T02980160  RH  043%=      5-min Rain = 0
KPD3 201351Z 23018KT 30/16 A2992 RMK A01 T02980161  RH  044%=      5-min Rain = 0
KPD3 201352Z 20016KT 30/16 A2992 RMK A01 T02970160  RH  043%=      5-min Rain = 0
KPD3 201353Z 20015G20KT 30/16 A2992 RMK A01 T02970160  RH  043%=      5-min Rain = 0
KPD3 201354Z 21016G22KT 30/16 A2992 RMK A01 T02960160  RH  044%=      5-min Rain = 0
KPD3 201355Z 22016KT 30/16 A2992 RMK A01 T02970160  RH  044%=      5-min Rain = 0
KPD3 201356Z 22014KT 30/16 A2992 RMK A01 T02970160  RH  044%=      5-min Rain = 0
KPD3 201357Z 21016KT 30/16 A2992 RMK A01 T02980160  RH  043%=      5-min Rain = 0
KPD3 201358Z 21014KT 30/16 A2992 RMK A01 T02990160  RH  043%=      5-min Rain = 0
KPD3 201359Z 21015KT 30/16 A2992 RMK A01 T03000161  RH  043%=      5-min Rain = 0
KPD3 201400Z 21015KT 30/16 A2993 RMK A01 T03010160  RH  043%=      5-min Rain = 0
KPD3 201401Z 20018KT 30/16 A2993 RMK A01 T03010161  RH  043%=      5-min Rain = 0
KPD3 201402Z 21016KT 30/16 A2992 RMK A01 T03000161  RH  043%=      5-min Rain = 0
KPD3 201403Z 20013KT 30/16 A2992 RMK A01 T03000161  RH  043%=      5-min Rain = 0
KPD3 201404Z 21018KT 30/16 A2992 RMK A01 T03010161  RH  043%=      5-min Rain = 0
KPD3 201405Z 22016KT 30/16 A2992 RMK A01 T03010160  RH  043%=      5-min Rain = 0
KPD3 201406Z 21015KT 30/16 A2992 RMK A01 T02990161  RH  043%=      5-min Rain = 0
KPD3 201407Z 21015KT 30/16 A2992 RMK A01 T03010162  RH  043%=      5-min Rain = 0
KPD3 201408Z 22012KT 30/16 A2992 RMK A01 T03010162  RH  043%=      5-min Rain = 0
KPD3 201409Z 21016G21KT 30/16 A2992 RMK A01 T03030162  RH  043%=      5-min Rain = 0
KPD3 201410Z 23014KT 30/16 A2992 RMK A01 T03040163  RH  042%=      5-min Rain = 0
KPD3 201411Z 22015G20KT 31/16 A2992 RMK A01 T03050162  RH  042%=      5-min Rain = 0
KPD3 201412Z 21019KT 30/16 A2992 RMK A01 T03030162  RH  043%=      5-min Rain = 0
KPD3 201413Z 21019KT 30/16 A2992 RMK A01 T03020162  RH  043%=      5-min Rain = 0
KPD3 201414Z 21016KT 30/16 A2992 RMK A01 T03020162  RH  043%=      5-min Rain = 0
KPD3 201415Z 21016KT 30/16 A2992 RMK A01 T03020162  RH  043%=      5-min Rain = 0
KPD3 201416Z 22015KT 30/16 A2992 RMK A01 T03030163  RH  043%=      5-min Rain = 0
KPD3 201417Z 22021KT 30/16 A2992 RMK A01 T03040162  RH  042%=      5-min Rain = 0
KPD3 201418Z 21018KT 30/16 A2992 RMK A01 T03030162  RH  043%=      5-min Rain = 0
KPD3 201419Z 21016KT 30/16 A2992 RMK A01 T03020163  RH  043%=      5-min Rain = 0
KPD3 201420Z 22013KT 30/16 A2992 RMK A01 T03030163  RH  043%=      5-min Rain = 0
KPD3 201421Z 22015KT 31/16 A2992 RMK A01 T03050163  RH  043%=      5-min Rain = 0
KPD3 201422Z 21014KT 31/16 A2992 RMK A01 T03050163  RH  042%=      5-min Rain = 0
KPD3 201423Z 21018G23KT 31/16 A2992 RMK A01 T03060164  RH  042%=      5-min Rain = 0
KPD3 201424Z 20016G21KT 31/16 A2992 RMK A01 T03080163  RH  042%=      5-min Rain = 0
KPD3 201425Z 21017G22KT 31/16 A2992 RMK A01 T03080163  RH  042%=      5-min Rain = 0
KPD3 201426Z 20018KT 31/16 A2992 RMK A01 T03080163  RH  042%=      5-min Rain = 0
KPD3 201427Z 20020KT 31/16 A2992 RMK A01 T03090163  RH  041%=      5-min Rain = 0
KPD3 201428Z 20018KT 31/16 A2992 RMK A01 T03070163  RH  042%=      5-min Rain = 0
KPD3 201429Z 20017G23KT 31/16 A2992 RMK A01 T03060163  RH  042%=      5-min Rain = 0
KPD3 201430Z 21015KT 31/16 A2992 RMK A01 T03060163  RH  042%=      5-min Rain = 0
KPD3 201431Z 21015KT 31/16 A2992 RMK A01 T03080164  RH  042%=      5-min Rain = 0
KPD3 201432Z 20017KT 31/16 A2992 RMK A01 T03100164  RH  042%=      5-min Rain = 0
KPD3 201433Z 20017KT 31/16 A2992 RMK A01 T03100163  RH  041%=      5-min Rain = 0
KPD3 201434Z 20015KT 31/16 A2992 RMK A01 T03090164  RH  042%=      5-min Rain = 0
KPD3 201435Z 21013KT 31/17 A2992 RMK A01 T03100165  RH  042%=      5-min Rain = 0
KPD3 201436Z 21013KT 31/17 A2992 RMK A01 T03140165  RH  041%=      5-min Rain = 0
KPD3 201437Z 20016KT 31/17 A2992 RMK A01 T03140165  RH  041%=      5-min Rain = 0
KPD3 201438Z 21014KT 31/16 A2992 RMK A01 T03130164  RH  041%=      5-min Rain = 0
KPD3 201439Z 20018G23KT 31/16 A2992 RMK A01 T03120164  RH  041%=      5-min Rain = 0
KPD3 201440Z 21017KT 31/16 A2992 RMK A01 T03130163  RH  041%=      5-min Rain = 0
KPD3 201441Z 20017KT 31/16 A2992 RMK A01 T03120164  RH  041%=      5-min Rain = 0
KPD3 201442Z 21014KT 31/16 A2992 RMK A01 T03110164  RH  041%=      5-min Rain = 0
KPD3 201443Z 21016KT 31/16 A2992 RMK A01 T03100163  RH  041%=      5-min Rain = 0
KPD3 201444Z 20016KT 31/16 A2992 RMK A01 T03090164  RH  042%=      5-min Rain = 0
KPD3 201445Z 20015KT 31/17 A2992 RMK A01 T03100165  RH  042%=      5-min Rain = 0
KPD3 201446Z 20015KT 31/17 A2992 RMK A01 T03120165  RH  041%=      5-min Rain = 0
KPD3 201447Z 21015KT 31/16 A2992 RMK A01 T03120164  RH  041%=      5-min Rain = 0
KPD3 201448Z 21015KT 31/16 A2992 RMK A01 T03120164  RH  041%=      5-min Rain = 0
KPD3 201449Z 19015KT 31/16 A2992 RMK A01 T03120164  RH  041%=      5-min Rain = 0
KPD3 201450Z 19016KT 31/16 A2992 RMK A01 T03120164  RH  041%=      5-min Rain = 0
KPD3 201451Z 20015KT 31/16 A2992 RMK A01 T03120164  RH  041%=      5-min Rain = 0
KPD3 201452Z 20013KT 31/16 A2992 RMK A01 T03130164  RH  041%=      5-min Rain = 0
KPD3 201453Z 20015KT 32/17 A2992 RMK A01 T03150165  RH  040%=      5-min Rain = 0
KPD3 201454Z 21013KT 32/17 A2992 RMK A01 T03160165  RH  040%=      5-min Rain = 0
KPD3 201455Z 21010KT 32/17 A2992 RMK A01 T03160165  RH  040%=      5-min Rain = 0
KPD3 201456Z 19012KT 32/17 A2992 RMK A01 T03160166  RH  041%=      5-min Rain = 0
KPD3 201457Z 19012KT 32/17 A2992 RMK A01 T03170165  RH  040%=      5-min Rain = 0
KPD3 201458Z 19013KT 32/17 A2992 RMK A01 T03170165  RH  040%=      5-min Rain = 0
KPD3 201459Z 19013KT 32/17 A2992 RMK A01 T03170165  RH  040%=      5-min Rain = 0
KPD3 201500Z 19011KT 32/17 A2992 RMK A01 T03160165  RH  040%=      5-min Rain = 0
KPD3 201501Z 18013KT 32/17 A2992 RMK A01 T03170165  RH  040%=      5-min Rain = 0
KPD3 201502Z 19013KT 32/17 A2992 RMK A01 T03190165  RH  040%=      5-min Rain = 0
KPD3 201503Z 19011KT 32/17 A2992 RMK A01 T03190165  RH  040%=      5-min Rain = 0
KPD3 201504Z 19013KT 32/17 A2992 RMK A01 T03190165  RH  040%=      5-min Rain = 0
KPD3 201505Z 19013KT 32/17 A2992 RMK A01 T03200165  RH  039%=      5-min Rain = 0
KPD3 201506Z 20010G15KT 32/17 A2992 RMK A01 T03210166  RH  039%=      5-min Rain = 0
KPD3 201507Z 21011KT 32/17 A2992 RMK A01 T03240165  RH  039%=      5-min Rain = 0
KPD3 201508Z 22012G17KT 32/17 A2992 RMK A01 T03230166  RH  039%=      5-min Rain = 0
KPD3 201509Z 21012KT 32/16 A2992 RMK A01 T03230164  RH  038%=      5-min Rain = 0
KPD3 201510Z 20008KT 32/17 A2992 RMK A01 T03220165  RH  039%=      5-min Rain = 0
KPD3 201511Z 20011KT 33/17 A2992 RMK A01 T03250166  RH  039%=      5-min Rain = 0
KPD3 201512Z 21011KT 33/17 A2992 RMK A01 T03270166  RH  038%=      5-min Rain = 0
KPD3 201513Z 19011KT 33/17 A2992 RMK A01 T03270166  RH  038%=      5-min Rain = 0
KPD3 201514Z 21012KT 33/17 A2992 RMK A01 T03280166  RH  038%=      5-min Rain = 0
KPD3 201515Z 22016KT 33/17 A2992 RMK A01 T03280166  RH  038%=      5-min Rain = 0
KPD3 201516Z 21014KT 33/17 A2992 RMK A01 T03250165  RH  038%=      5-min Rain = 0
KPD3 201517Z 21014KT 32/16 A2991 RMK A01 T03230164  RH  039%=      5-min Rain = 0
KPD3 201518Z 21014KT 32/16 A2991 RMK A01 T03220164  RH  039%=      5-min Rain = 0
KPD3 201519Z 22012KT 32/17 A2991 RMK A01 T03220165  RH  039%=      5-min Rain = 0
KPD3 201520Z 22013KT 32/17 A2991 RMK A01 T03240166  RH  039%=      5-min Rain = 0
KPD3 201521Z 22013KT 33/17 A2991 RMK A01 T03250166  RH  039%=      5-min Rain = 0
KPD3 201522Z 21012KT 32/17 A2991 RMK A01 T03240166  RH  039%=      5-min Rain = 0
KPD3 201523Z 22011KT 32/17 A2991 RMK A01 T03240166  RH  039%=      5-min Rain = 0
KPD3 201524Z 22013KT 32/17 A2991 RMK A01 T03230166  RH  039%=      5-min Rain = 0
KPD3 201525Z 22012KT 32/17 A2991 RMK A01 T03230167  RH  039%=      5-min Rain = 0
KPD3 201526Z 22013KT 33/17 A2991 RMK A01 T03250167  RH  039%=      5-min Rain = 0
KPD3 201527Z 22008KT 33/17 A2991 RMK A01 T03250166  RH  039%=      5-min Rain = 0
KPD3 201528Z 21013KT 33/17 A2991 RMK A01 T03260167  RH  039%=      5-min Rain = 0
KPD3 201529Z 21012KT 33/17 A2991 RMK A01 T03260167  RH  039%=      5-min Rain = 0
KPD3 201530Z 20011KT 33/17 A2991 RMK A01 T03270167  RH  038%=      5-min Rain = 0
KPD3 201531Z 19013KT 33/17 A2991 RMK A01 T03300168  RH  038%=      5-min Rain = 0
KPD3 201532Z 20009KT 33/17 A2991 RMK A01 T03310167  RH  038%=      5-min Rain = 0
KPD3 201533Z 20011KT 33/17 A2991 RMK A01 T03300166  RH  038%=      5-min Rain = 0
KPD3 201534Z 20013KT 33/17 A2991 RMK A01 T03300166  RH  037%=      5-min Rain = 0
KPD3 201535Z 20010KT 33/17 A2991 RMK A01 T03270166  RH  038%=      5-min Rain = 0
KPD3 201536Z 21009KT 33/17 A2991 RMK A01 T03280168  RH  038%=      5-min Rain = 0
KPD3 201537Z 22008KT 33/17 A2991 RMK A01 T03340168  RH  037%=      5-min Rain = 0
KPD3 201538Z 21010KT 33/17 A2991 RMK A01 T03340167  RH  037%=      5-min Rain = 0
KPD3 201539Z 22010KT 33/17 A2991 RMK A01 T03320168  RH  037%=      5-min Rain = 0
KPD3 201540Z 22009KT 34/17 A2991 RMK A01 T03350167  RH  037%=      5-min Rain = 0
KPD3 201541Z 21012KT 34/17 A2991 RMK A01 T03350167  RH  037%=      5-min Rain = 0
KPD3 201542Z 20009KT 34/17 A2991 RMK A01 T03350167  RH  037%=      5-min Rain = 0
KPD3 201543Z 21009KT 34/17 A2991 RMK A01 T03360168  RH  037%=      5-min Rain = 0
KPD3 201544Z 22012KT 34/17 A2991 RMK A01 T03380168  RH  036%=      5-min Rain = 0
KPD3 201545Z 22009KT 34/17 A2991 RMK A01 T03360166  RH  036%=      5-min Rain = 0
KPD3 201546Z 22008KT 33/17 A2991 RMK A01 T03340166  RH  037%=      5-min Rain = 0
KPD3 201547Z 21011KT 33/17 A2991 RMK A01 T03340168  RH  037%=      5-min Rain = 0
KPD3 201548Z 20009KT 34/17 A2991 RMK A01 T03370168  RH  037%=      5-min Rain = 0
KPD3 201549Z 19006KT 34/17 A2991 RMK A01 T03350168  RH  037%=      5-min Rain = 0
KPD3 201550Z 16006KT 33/17 A2991 RMK A01 T03340168  RH  037%=      5-min Rain = 0
KPD3 201551Z 18009KT 34/17 A2991 RMK A01 T03350169  RH  037%=      5-min Rain = 0
KPD3 201552Z 17011KT 34/17 A2991 RMK A01 T03380168  RH  036%=      5-min Rain = 0
KPD3 201553Z 17008KT 34/17 A2991 RMK A01 T03380168  RH  036%=      5-min Rain = 0
KPD3 201554Z 19010KT 34/17 A2991 RMK A01 T03370169  RH  037%=      5-min Rain = 0
KPD3 201555Z 18009KT 34/17 A2991 RMK A01 T03400169  RH  036%=      5-min Rain = 0
KPD3 201556Z 17008KT 34/17 A2991 RMK A01 T03380168  RH  036%=      5-min Rain = 0
KPD3 201557Z 22008KT 34/17 A2991 RMK A01 T03380169  RH  037%=      5-min Rain = 0
KPD3 201558Z 22008KT 34/17 A2991 RMK A01 T03420171  RH  036%=      5-min Rain = 0
KPD3 201559Z 19010KT 35/17 A2991 RMK A01 T03460170  RH  035%=      5-min Rain = 0
KPD3 201600Z 19008G13KT 35/17 A2991 RMK A01 T03450167  RH  035%=      5-min Rain = 0
KPD3 201601Z 17008KT 34/17 A2991 RMK A01 T03400167  RH  036%=      5-min Rain = 0
KPD3 201602Z 20008KT 34/17 A299 RMK A01 T03390168  RH  036%=      5-min Rain = 0
KPD3 201603Z 19011KT 34/17 A2991 RMK A01 T03410169  RH  036%=      5-min Rain = 0
KPD3 201604Z 19012KT 34/17 A2991 RMK A01 T03430169  RH  036%=      5-min Rain = 0
KPD3 201605Z 19011G17KT 34/17 A299 RMK A01 T03430169  RH  036%=      5-min Rain = 0
KPD3 201606Z 19011G16KT 34/17 A299 RMK A01 T03420168  RH  036%=      5-min Rain = 0
KPD3 201607Z 18009KT 34/17 A299 RMK A01 T03410168  RH  036%=      5-min Rain = 0
KPD3 201608Z 20012KT 34/17 A299 RMK A01 T03420168  RH  036%=      5-min Rain = 0
KPD3 201609Z 19013KT 35/17 A299 RMK A01 T03450168  RH  035%=      5-min Rain = 0
KPD3 201610Z 18012KT 35/17 A299 RMK A01 T03470168  RH  035%=      5-min Rain = 0
KPD3 201611Z 19013KT 35/17 A299 RMK A01 T03480168  RH  034%=      5-min Rain = 0
KPD3 201612Z 20010KT 35/17 A299 RMK A01 T03470167  RH  034%=      5-min Rain = 0
KPD3 201613Z 22010KT 34/17 A299 RMK A01 T03430166  RH  035%=      5-min Rain = 0
KPD3 201614Z 21008KT 34/17 A299 RMK A01 T03410167  RH  035%=      5-min Rain = 0
KPD3 201615Z 18009G15KT 34/17 A299 RMK A01 T03440170  RH  036%=      5-min Rain = 0
KPD3 201616Z 18009KT 35/17 A299 RMK A01 T03490169  RH  034%=      5-min Rain = 0
KPD3 201617Z 17007KT 35/17 A299 RMK A01 T03460168  RH  035%=      5-min Rain = 0
KPD3 201618Z 19007KT 34/17 A299 RMK A01 T03420168  RH  036%=      5-min Rain = 0
KPD3 201619Z 20011KT 35/17 A299 RMK A01 T03460171  RH  036%=      5-min Rain = 0
KPD3 201620Z 19011KT 35/17 A299 RMK A01 T03520169  RH  034%=      5-min Rain = 0
KPD3 201621Z 19008KT 35/17 A299 RMK A01 T03510170  RH  034%=      5-min Rain = 0
KPD3 201622Z 19016KT 35/17 A299 RMK A01 T03520169  RH  034%=      5-min Rain = 0
KPD3 201623Z 20011KT 35/17 A299 RMK A01 T03520168  RH  034%=      5-min Rain = 0
KPD3 201624Z 19012KT 35/17 A299 RMK A01 T03540169  RH  033%=      5-min Rain = 0
KPD3 201625Z 19012KT 36/17 A299 RMK A01 T03560168  RH  033%=      5-min Rain = 0
KPD3 201626Z 19013KT 36/17 A299 RMK A01 T03560168  RH  033%=      5-min Rain = 0
KPD3 201627Z 20009KT 36/17 A299 RMK A01 T03550168  RH  033%=      5-min Rain = 0
KPD3 201628Z 20011KT 35/17 A299 RMK A01 T03540169  RH  033%=      5-min Rain = 0
KPD3 201629Z 20012KT 35/17 A299 RMK A01 T03530168  RH  033%=      5-min Rain = 0
KPD3 201630Z 21011KT 35/17 A299 RMK A01 T03520167  RH  033%=      5-min Rain = 0
KPD3 201631Z 20010KT 35/17 A299 RMK A01 T03500167  RH  034%=      5-min Rain = 0
KPD3 201632Z 21011KT 35/17 A299 RMK A01 T03490169  RH  034%=      5-min Rain = 0
KPD3 201633Z 22007KT 35/17 A299 RMK A01 T03470169  RH  035%=      5-min Rain = 0
KPD3 201634Z 22007KT 35/17 A299 RMK A01 T03470169  RH  035%=      5-min Rain = 0
KPD3 201635Z 20010G17KT 35/17 A299 RMK A01 T03480170  RH  035%=      5-min Rain = 0
KPD3 201636Z 21011KT 35/17 A299 RMK A01 T03500169  RH  034%=      5-min Rain = 0
KPD3 201637Z 19012KT 35/17 A299 RMK A01 T03530169  RH  034%=      5-min Rain = 0
KPD3 201638Z 19011KT 35/17 A299 RMK A01 T03540165  RH  033%=      5-min Rain = 0
KPD3 201639Z 18013KT 36/17 A299 RMK A01 T03560167  RH  033%=      5-min Rain = 0
KPD3 201640Z 18011KT 36/17 A299 RMK A01 T03580165  RH  032%=      5-min Rain = 0
KPD3 201641Z 20013KT 36/17 A299 RMK A01 T03550166  RH  033%=      5-min Rain = 0
KPD3 201642Z 21011KT 35/17 A299 RMK A01 T03530165  RH  033%=      5-min Rain = 0
KPD3 201643Z 20010KT 35/17 A299 RMK A01 T03540167  RH  033%=      5-min Rain = 0
KPD3 201644Z 19007KT 36/17 A299 RMK A01 T03550166  RH  033%=      5-min Rain = 0
KPD3 201645Z 20010KT 36/17 A299 RMK A01 T03560168  RH  033%=      5-min Rain = 0
KPD3 201646Z 21008KT 36/17 A299 RMK A01 T03580168  RH  033%=      5-min Rain = 0
KPD3 201647Z 21011KT 36/17 A299 RMK A01 T03610169  RH  032%=      5-min Rain = 0
KPD3 201648Z 21009KT 36/17 A299 RMK A01 T03610168  RH  032%=      5-min Rain = 0
KPD3 201649Z 22011KT 36/17 A2989 RMK A01 T03610168  RH  032%=      5-min Rain = 0
KPD3 201650Z 22011KT 36/17 A2989 RMK A01 T03600169  RH  032%=      5-min Rain = 0
KPD3 201651Z 23010KT 36/17 A2989 RMK A01 T03610169  RH  032%=      5-min Rain = 0
KPD3 201652Z 23009KT 36/17 A2989 RMK A01 T03610170  RH  032%=      5-min Rain = 0
KPD3 201653Z 20010KT 36/17 A2989 RMK A01 T03630170  RH  032%=      5-min Rain = 0
KPD3 201654Z 20009KT 36/17 A2989 RMK A01 T03630169  RH  032%=      5-min Rain = 0
KPD3 201655Z 19008KT 36/17 A2989 RMK A01 T03590169  RH  032%=      5-min Rain = 0
KPD3 201656Z 18011KT 36/17 A299 RMK A01 T03610170  RH  032%=      5-min Rain = 0
KPD3 201657Z 20013KT 37/17 A299 RMK A01 T03650169  RH  032%=      5-min Rain = 0
KPD3 201658Z 19015KT 37/17 A299 RMK A01 T03680170  RH  031%=      5-min Rain = 0
KPD3 201659Z 19012KT 37/17 A299 RMK A01 T03690169  RH  031%=      5-min Rain = 0
KPD3 201700Z 20013KT 37/17 A299 RMK A01 T03660166  RH  031%=      5-min Rain = 0
KPD3 201701Z 19012KT 37/17 A299 RMK A01 T03650166  RH  031%=      5-min Rain = 0
KPD3 201702Z 18010G15KT 37/17 A299 RMK A01 T03700168  RH  030%=      5-min Rain = 0
KPD3 201703Z 18014KT 37/17 A299 RMK A01 T03710167  RH  030%=      5-min Rain = 0
KPD3 201704Z 20016KT 37/17 A299 RMK A01 T03700167  RH  030%=      5-min Rain = 0
KPD3 201705Z 21012G17KT 37/17 A299 RMK A01 T03690168  RH  031%=      5-min Rain = 0
KPD3 201706Z 20011KT 37/17 A299 RMK A01 T03690170  RH  031%=      5-min Rain = 0
KPD3 201707Z 22009KT 37/17 A299 RMK A01 T03730169  RH  030%=      5-min Rain = 0
KPD3 201708Z 20010KT 37/17 A299 RMK A01 T03720170  RH  030%=      5-min Rain = 0
KPD3 201709Z 19008KT 37/17 A299 RMK A01 T03700171  RH  031%=      5-min Rain = 0
KPD3 201710Z 23008KT 37/17 A2989 RMK A01 T03730172  RH  031%=      5-min Rain = 0
KPD3 201711Z 19011KT 38/17 A2989 RMK A01 T03760174  RH  031%=      5-min Rain = 0
KPD3 201712Z 18012KT 38/17 A2989 RMK A01 T03790173  RH  030%=      5-min Rain = 0
KPD3 201713Z 17014KT 38/17 A2989 RMK A01 T03800174  RH  030%=      5-min Rain = 0
KPD3 201714Z 15014KT 38/17 A2989 RMK A01 T03790170  RH  029%=      5-min Rain = 0
KPD3 201715Z 16010KT 37/17 A299 RMK A01 T03710169  RH  030%=      5-min Rain = 0
KPD3 201716Z 18008KT 37/17 A2989 RMK A01 T03670171  RH  031%=      5-min Rain = 0
KPD3 201717Z 18009KT 37/17 A2989 RMK A01 T03660171  RH  032%=      5-min Rain = 0
KPD3 201718Z 18011KT 37/17 A2989 RMK A01 T03680172  RH  032%=      5-min Rain = 0
KPD3 201719Z 18010KT 37/17 A2989 RMK A01 T03700168  RH  030%=      5-min Rain = 0
KPD3 201720Z 18010G17KT 37/17 A2989 RMK A01 T03690169  RH  031%=      5-min Rain = 0
KPD3 201721Z 16010G15KT 37/17 A2989 RMK A01 T03690169  RH  031%=      5-min Rain = 0
KPD3 201722Z 15012KT 37/17 A2989 RMK A01 T03710171  RH  031%=      5-min Rain = 0
KPD3 201723Z 16015KT 37/17 A2989 RMK A01 T03740172  RH  031%=      5-min Rain = 0
KPD3 201724Z 15011KT 37/17 A2989 RMK A01 T03720171  RH  031%=      5-min Rain = 0
KPD3 201725Z 15007KT 37/17 A2989 RMK A01 T03690170  RH  031%=      5-min Rain = 0
KPD3 201726Z 16007KT 37/17 A2989 RMK A01 T03680170  RH  031%=      5-min Rain = 0
KPD3 201727Z 17008KT 37/17 A2989 RMK A01 T03690172  RH  031%=      5-min Rain = 0
KPD3 201728Z 17010G15KT 37/17 A2989 RMK A01 T03710171  RH  031%=      5-min Rain = 0
KPD3 201729Z 16010KT 37/17 A2989 RMK A01 T03700173  RH  031%=      5-min Rain = 0
KPD3 201730Z 18009G14KT 37/17 A2989 RMK A01 T03740174  RH  031%=      5-min Rain = 0
KPD3 201731Z 19013KT 38/17 A2989 RMK A01 T03770174  RH  030%=      5-min Rain = 0
KPD3 201732Z 17010KT 38/17 A2989 RMK A01 T03790173  RH  030%=      5-min Rain = 0
KPD3 201733Z 15015KT 38/17 A2989 RMK A01 T03770169  RH  030%=      5-min Rain = 0
KPD3 201734Z 15011KT 38/17 A2989 RMK A01 T03760168  RH  029%=      5-min Rain = 0
KPD3 201735Z 14007KT 37/17 A2989 RMK A01 T03740168  RH  030%=      5-min Rain = 0
KPD3 201736Z 18008G14KT 37/17 A2989 RMK A01 T03740168  RH  030%=      5-min Rain = 0
KPD3 201737Z 21010KT 37/17 A2989 RMK A01 T03730169  RH  030%=      5-min Rain = 0
KPD3 201738Z 17012KT 37/17 A2989 RMK A01 T03730170  RH  030%=      5-min Rain = 0
KPD3 201739Z 17009KT 38/17 A2989 RMK A01 T03750166  RH  029%=      5-min Rain = 0
KPD3 201740Z 16004KT 37/17 A2989 RMK A01 T03730168  RH  030%=      5-min Rain = 0
KPD3 201741Z 16013KT 38/17 A2989 RMK A01 T03770170  RH  030%=      5-min Rain = 0
KPD3 201742Z 17015KT 38/17 A2989 RMK A01 T03820169  RH  029%=      5-min Rain = 0
KPD3 201743Z 18014KT 38/17 A2989 RMK A01 T03800167  RH  029%=      5-min Rain = 0
KPD3 201744Z 18010KT 38/17 A2989 RMK A01 T03780167  RH  029%=      5-min Rain = 0
KPD3 201745Z 19013KT 38/17 A2989 RMK A01 T03810168  RH  029%=      5-min Rain = 0
KPD3 201746Z 18015KT 38/17 A2988 RMK A01 T03790168  RH  029%=      5-min Rain = 0
KPD3 201747Z 18013KT 38/17 A2988 RMK A01 T03770169  RH  029%=      5-min Rain = 0
KPD3 201748Z 17012KT 38/17 A2988 RMK A01 T03780170  RH  030%=      5-min Rain = 0
KPD3 201749Z 17010KT 38/17 A2988 RMK A01 T03780171  RH  030%=      5-min Rain = 0
KPD3 201750Z 17013KT 38/17 A2988 RMK A01 T03790173  RH  030%=      5-min Rain = 0
KPD3 201751Z 15011KT 38/17 A2988 RMK A01 T03810172  RH  029%=      5-min Rain = 0
KPD3 201752Z 14006KT 38/17 A2988 RMK A01 T03810171  RH  029%=      5-min Rain = 0
KPD3 201753Z 15006KT 38/18 A2988 RMK A01 T03820175  RH  030%=      5-min Rain = 0
KPD3 201754Z 19010KT 39/17 A2988 RMK A01 T03880173  RH  029%=      5-min Rain = 0
KPD3 201755Z 18011KT 39/17 A2988 RMK A01 T03880173  RH  029%=      5-min Rain = 0
KPD3 201756Z 18008KT 39/17 A2988 RMK A01 T03900173  RH  028%=      5-min Rain = 0
KPD3 201757Z 18013G19KT 39/17 A2988 RMK A01 T03890173  RH  028%=      5-min Rain = 0
KPD3 201758Z 17015KT 39/17 A2988 RMK A01 T03910174  RH  028%=      5-min Rain = 0
KPD3 201759Z 17014KT 39/17 A2988 RMK A01 T03910172  RH  028%=      5-min Rain = 0
KPD3 201800Z 17015KT 39/17 A2988 RMK A01 T03870172  RH  028%=      5-min Rain = 0
KPD3 201801Z 17013KT 39/17 A2988 RMK A01 T03860171  RH  028%=      5-min Rain = 0
KPD3 201802Z 17013KT 38/17 A2988 RMK A01 T03820171  RH  029%=      5-min Rain = 0
KPD3 201803Z 17015KT 38/17 A2988 RMK A01 T03810172  RH  029%=      5-min Rain = 0
KPD3 201804Z 17010KT 38/17 A2988 RMK A01 T03810172  RH  029%=      5-min Rain = 0
KPD3 201805Z 15012KT 38/18 A2988 RMK A01 T03820176  RH  030%=      5-min Rain = 0
KPD3 201806Z 12015KT 39/18 A2988 RMK A01 T03890178  RH  029%=      5-min Rain = 0
KPD3 201807Z 15010KT 39/18 A2988 RMK A01 T03890178  RH  029%=      5-min Rain = 0
KPD3 201808Z 15011KT 39/18 A2988 RMK A01 T03900176  RH  029%=      5-min Rain = 0
KPD3 201809Z 16012KT 39/18 A2988 RMK A01 T03930177  RH  029%=      5-min Rain = 0
KPD3 201810Z 17012KT 39/18 A2988 RMK A01 T03940178  RH  028%=      5-min Rain = 0
KPD3 201811Z 18011KT 39/18 A2988 RMK A01 T03890176  RH  029%=      5-min Rain = 0
KPD3 201812Z 20013KT 39/17 A2987 RMK A01 T03860170  RH  028%=      5-min Rain = 0
KPD3 201813Z 19008KT 39/17 A2987 RMK A01 T03860169  RH  028%=      5-min Rain = 0
KPD3 201814Z 20009KT 39/17 A2987 RMK A01 T03860170  RH  028%=      5-min Rain = 0
KPD3 201815Z 17012KT 39/18 A2987 RMK A01 T03930177  RH  028%=      5-min Rain = 0
KPD3 201816Z 15012KT 39/18 A2987 RMK A01 T03930178  RH  029%=      5-min Rain = 0
KPD3 201817Z 15012KT 39/18 A2987 RMK A01 T03930179  RH  029%=      5-min Rain = 0
KPD3 201818Z 16012KT 39/18 A2987 RMK A01 T03910178  RH  029%=      5-min Rain = 0
KPD3 201819Z 16012G17KT 39/18 A2987 RMK A01 T03860177  RH  030%=      5-min Rain = 0
KPD3 201820Z 15014KT 39/18 A2987 RMK A01 T03870177  RH  029%=      5-min Rain = 0
KPD3 201821Z 16012KT 39/17 A2987 RMK A01 T03860173  RH  029%=      5-min Rain = 0
KPD3 201822Z 16010KT 39/17 A2987 RMK A01 T03860170  RH  028%=      5-min Rain = 0
KPD3 201823Z 16011KT 39/17 A2987 RMK A01 T03850170  RH  029%=      5-min Rain = 0
KPD3 201824Z 14013KT 38/17 A2987 RMK A01 T03830174  RH  029%=      5-min Rain = 0
KPD3 201825Z 14014KT 38/18 A2987 RMK A01 T03840175  RH  029%=      5-min Rain = 0
KPD3 201826Z 16017G22KT 39/17 A2987 RMK A01 T03860167  RH  028%=      5-min Rain = 0
KPD3 201827Z 17013KT 39/17 A2987 RMK A01 T03870168  RH  028%=      5-min Rain = 0
KPD3 201828Z 18014KT 39/17 A2987 RMK A01 T03870167  RH  028%=      5-min Rain = 0
KPD3 201829Z 18010KT 38/17 A2987 RMK A01 T03840169  RH  029%=      5-min Rain = 0
KPD3 201830Z 17014KT 38/17 A2987 RMK A01 T03820174  RH  030%=      5-min Rain = 0
KPD3 201831Z 19009KT 39/18 A2987 RMK A01 T03850178  RH  030%=      5-min Rain = 0
KPD3 201832Z 18010KT 39/18 A2987 RMK A01 T03850177  RH  030%=      5-min Rain = 0
KPD3 201833Z 17012KT 38/18 A2987 RMK A01 T03840177  RH  030%=      5-min Rain = 0
KPD3 201834Z 15011KT 39/18 A2987 RMK A01 T03850175  RH  029%=      5-min Rain = 0
KPD3 201835Z 17011G21KT 39/18 A2986 RMK A01 T03850175  RH  029%=      5-min Rain = 0
KPD3 201836Z 17020KT 38/18 A2986 RMK A01 T03840177  RH  030%=      5-min Rain = 0
KPD3 201837Z 16022KT 39/18 A2987 RMK A01 T03860175  RH  029%=      5-min Rain = 0
KPD3 201838Z 16015G20KT 39/17 A2987 RMK A01 T03850174  RH  029%=      5-min Rain = 0
KPD3 201839Z 15013KT 38/18 A2987 RMK A01 T03830177  RH  030%=      5-min Rain = 0
KPD3 201840Z 15018KT 39/18 A2987 RMK A01 T03850176  RH  030%=      5-min Rain = 0
KPD3 201841Z 15013KT 38/18 A2986 RMK A01 T03830175  RH  030%=      5-min Rain = 0
KPD3 201842Z 14009KT 38/18 A2986 RMK A01 T03820177  RH  030%=      5-min Rain = 0
KPD3 201843Z 15013KT 38/18 A2986 RMK A01 T03830179  RH  030%=      5-min Rain = 0
KPD3 201844Z 15017KT 39/18 A2986 RMK A01 T03850176  RH  030%=      5-min Rain = 0
KPD3 201845Z 14016KT 39/18 A2986 RMK A01 T03860176  RH  029%=      5-min Rain = 0
KPD3 201846Z 14013KT 39/18 A2986 RMK A01 T03850176  RH  030%=      5-min Rain = 0
KPD3 201847Z 14017KT 39/18 A2986 RMK A01 T03850177  RH  030%=      5-min Rain = 0
KPD3 201848Z 14015KT 39/18 A2986 RMK A01 T03890176  RH  029%=      5-min Rain = 0
KPD3 201849Z 14013KT 39/18 A2986 RMK A01 T03890177  RH  029%=      5-min Rain = 0
KPD3 201850Z 14014KT 39/18 A2986 RMK A01 T03860176  RH  029%=      5-min Rain = 0
KPD3 201851Z 13015G23KT 39/18 A2986 RMK A01 T03850177  RH  030%=      5-min Rain = 0
KPD3 201852Z 15016G21KT 39/18 A2986 RMK A01 T03890178  RH  029%=      5-min Rain = 0
KPD3 201853Z 16012G19KT 39/18 A2986 RMK A01 T03930178  RH  029%=      5-min Rain = 0
KPD3 201854Z 16017KT 40/18 A2986 RMK A01 T03980175  RH  027%=      5-min Rain = 0
KPD3 201855Z 15015KT 40/17 A2986 RMK A01 T03980172  RH  027%=      5-min Rain = 0
KPD3 201856Z 15013KT 40/17 A2986 RMK A01 T03950171  RH  027%=      5-min Rain = 0
KPD3 201857Z 14013KT 40/17 A2986 RMK A01 T03970172  RH  027%=      5-min Rain = 0
KPD3 201858Z 16015KT 40/17 A2986 RMK A01 T03970170  RH  027%=      5-min Rain = 0
KPD3 201859Z 15016KT 40/17 A2986 RMK A01 T03950172  RH  027%=      5-min Rain = 0
KPD3 201900Z 14016G21KT 39/17 A2986 RMK A01 T03940174  RH  028%=      5-min Rain = 0
KPD3 201901Z 14014KT 39/18 A2986 RMK A01 T03930176  RH  028%=      5-min Rain = 0
KPD3 201902Z 14014KT 39/17 A2986 RMK A01 T03930173  RH  028%=      5-min Rain = 0
KPD3 201903Z 15012G18KT 39/18 A2986 RMK A01 T03910175  RH  028%=      5-min Rain = 0
KPD3 201904Z 16011KT 39/18 A2986 RMK A01 T03890175  RH  029%=      5-min Rain = 0
KPD3 201905Z 14014KT 39/18 A2986 RMK A01 T03900177  RH  029%=      5-min Rain = 0
KPD3 201906Z 14014KT 39/17 A2986 RMK A01 T03910174  RH  028%=      5-min Rain = 0
KPD3 201907Z 13015KT 39/17 A2986 RMK A01 T03920173  RH  028%=      5-min Rain = 0
KPD3 201908Z 14016G21KT 39/17 A2986 RMK A01 T03930170  RH  027%=      5-min Rain = 0
KPD3 201909Z 14018G25KT 39/17 A2986 RMK A01 T03930173  RH  028%=      5-min Rain = 0
KPD3 201910Z 17015KT 40/17 A2986 RMK A01 T03960173  RH  027%=      5-min Rain = 0
KPD3 201911Z 18014KT 40/17 A2986 RMK A01 T03980168  RH  026%=      5-min Rain = 0
KPD3 201912Z 16017KT 40/17 A2986 RMK A01 T03990172  RH  027%=      5-min Rain = 0
KPD3 201913Z 14015G20KT 40/17 A2986 RMK A01 T03980174  RH  027%=      5-min Rain = 0
KPD3 201914Z 14012KT 40/17 A2986 RMK A01 T03980174  RH  027%=      5-min Rain = 0
KPD3 201915Z 15013KT 40/17 A2986 RMK A01 T03990173  RH  027%=      5-min Rain = 0
KPD3 201916Z 16014KT 40/17 A2986 RMK A01 T03980173  RH  027%=      5-min Rain = 0
KPD3 201917Z 17019G26KT 40/17 A2986 RMK A01 T04020172  RH  026%=      5-min Rain = 0
KPD3 201918Z 17013G20KT 40/17 A2986 RMK A01 T04020170  RH  026%=      5-min Rain = 0
KPD3 201919Z 13015G20KT 40/17 A2986 RMK A01 T03990174  RH  027%=      5-min Rain = 0
KPD3 201920Z 13018KT 40/18 A2986 RMK A01 T04000179  RH  028%=      5-min Rain = 0
KPD3 201921Z 15019G26KT 40/17 A2986 RMK A01 T03990171  RH  026%=      5-min Rain = 0
KPD3 201922Z 15020G26KT 40/17 A2986 RMK A01 T03980170  RH  026%=      5-min Rain = 0
KPD3 201923Z 15018G23KT 40/17 A2986 RMK A01 T03980170  RH  026%=      5-min Rain = 0
KPD3 201924Z 15014KT 40/17 A2986 RMK A01 T03950169  RH  027%=      5-min Rain = 0
KPD3 201925Z 15013KT 39/17 A2986 RMK A01 T03940171  RH  027%=      5-min Rain = 0
KPD3 201926Z 17014G19KT 39/17 A2986 RMK A01 T03940172  RH  027%=      5-min Rain = 0
KPD3 201927Z 16017KT 39/17 A2986 RMK A01 T03930173  RH  028%=      5-min Rain = 0
KPD3 201928Z 14017KT 39/17 A2986 RMK A01 T03930172  RH  028%=      5-min Rain = 0
KPD3 201929Z 16017KT 40/17 A2986 RMK A01 T03950173  RH  027%=      5-min Rain = 0
KPD3 201930Z 17015G21KT 40/17 A2986 RMK A01 T03950172  RH  027%=      5-min Rain = 0
KPD3 201931Z 17014G20KT 40/17 A2986 RMK A01 T03960173  RH  027%=      5-min Rain = 0
KPD3 201932Z 16015G20KT 40/17 A2986 RMK A01 T04000171  RH  026%=      5-min Rain = 0
KPD3 201933Z 14014KT 40/17 A2986 RMK A01 T04000171  RH  026%=      5-min Rain = 0
KPD3 201934Z 16013KT 40/17 A2986 RMK A01 T03980170  RH  026%=      5-min Rain = 0
KPD3 201935Z 18015KT 40/17 A2986 RMK A01 T03990170  RH  026%=      5-min Rain = 0
KPD3 201936Z 17009KT 40/17 A2985 RMK A01 T03980171  RH  027%=      5-min Rain = 0
KPD3 201937Z 19013G19KT 40/17 A2985 RMK A01 T03980172  RH  027%=      5-min Rain = 0
KPD3 201938Z 17019KT 40/17 A2985 RMK A01 T04010173  RH  027%=      5-min Rain = 0
KPD3 201939Z 18012G20KT 40/17 A2985 RMK A01 T04000172  RH  027%=      5-min Rain = 0
KPD3 201940Z 15011G18KT 40/17 A2985 RMK A01 T03970171  RH  027%=      5-min Rain = 0
KPD3 201941Z 14011G16KT 40/17 A2985 RMK A01 T03980169  RH  026%=      5-min Rain = 0
KPD3 201942Z 16019KT 40/17 A2985 RMK A01 T04000168  RH  026%=      5-min Rain = 0
KPD3 201943Z 16016KT 40/17 A2985 RMK A01 T03990167  RH  026%=      5-min Rain = 0
KPD3 201944Z 14016KT 40/17 A2985 RMK A01 T03990168  RH  026%=      5-min Rain = 0
KPD3 201945Z 13017KT 40/17 A2985 RMK A01 T04000169  RH  026%=      5-min Rain = 0
KPD3 201946Z 13014KT 40/17 A2985 RMK A01 T04000169  RH  026%=      5-min Rain = 0
KPD3 201947Z 16018KT 40/17 A2985 RMK A01 T04010168  RH  026%=      5-min Rain = 0
KPD3 201948Z 16019G24KT 40/17 A2985 RMK A01 T04030168  RH  025%=      5-min Rain = 0
KPD3 201949Z 16015KT 40/17 A2985 RMK A01 T04010166  RH  026%=      5-min Rain = 0
KPD3 201950Z 16011G16KT 40/17 A2985 RMK A01 T03960166  RH  026%=      5-min Rain = 0
KPD3 201951Z 15016KT 40/16 A2985 RMK A01 T03950159  RH  025%=      5-min Rain = 0
KPD3 201952Z 17014KT 40/16 A2985 RMK A01 T03970163  RH  026%=      5-min Rain = 0
KPD3 201953Z 18015KT 40/17 A2985 RMK A01 T04010168  RH  026%=      5-min Rain = 0
KPD3 201954Z 16018KT 40/17 A2985 RMK A01 T04040167  RH  025%=      5-min Rain = 0
KPD3 201955Z 16015KT 40/16 A2985 RMK A01 T04010164  RH  025%=      5-min Rain = 0
KPD3 201956Z 16015KT 40/17 A2985 RMK A01 T03990166  RH  026%=      5-min Rain = 0
KPD3 201957Z 16017KT 40/17 A2985 RMK A01 T03990165  RH  026%=      5-min Rain = 0
KPD3 201958Z 15017KT 40/17 A2985 RMK A01 T03990166  RH  026%=      5-min Rain = 0
KPD3 201959Z 15015KT 40/17 A2985 RMK A01 T03980165  RH  026%=      5-min Rain = 0
KPD3 202000Z 15016KT 40/17 A2985 RMK A01 T03990165  RH  026%=      5-min Rain = 0
KPD3 202001Z 16018G23KT 40/16 A2985 RMK A01 T04010164  RH  025%=      5-min Rain = 0
KPD3 202002Z 17014G19KT 40/16 A2985 RMK A01 T04010162  RH  025%=      5-min Rain = 0
KPD3 202003Z 15011KT 40/16 A2984 RMK A01 T03990163  RH  025%=      5-min Rain = 0
KPD3 202004Z 15014KT 40/16 A2984 RMK A01 T04010163  RH  025%=      5-min Rain = 0
KPD3 202005Z 15016KT 40/16 A2984 RMK A01 T04040164  RH  025%=      5-min Rain = 0
KPD3 202006Z 16014G20KT 40/17 A2984 RMK A01 T04010166  RH  025%=      5-min Rain = 0
KPD3 202007Z 16017G22KT 40/17 A2984 RMK A01 T03980165  RH  026%=      5-min Rain = 0
KPD3 202008Z 16015KT 40/17 A2984 RMK A01 T03980166  RH  026%=      5-min Rain = 0
KPD3 202009Z 18015KT 40/17 A2984 RMK A01 T04010165  RH  025%=      5-min Rain = 0
KPD3 202010Z 16013KT 40/16 A2984 RMK A01 T04010164  RH  025%=      5-min Rain = 0
KPD3 202011Z 16011KT 40/16 A2984 RMK A01 T04020163  RH  025%=      5-min Rain = 0
KPD3 202012Z 16015KT 40/16 A2984 RMK A01 T04030163  RH  025%=      5-min Rain = 0
KPD3 202013Z 16013KT 40/16 A2984 RMK A01 T04020163  RH  025%=      5-min Rain = 0
KPD3 202014Z 14012G19KT 40/17 A2984 RMK A01 T04030166  RH  025%=      5-min Rain = 0
KPD3 202015Z 13013KT 40/17 A2984 RMK A01 T04040167  RH  025%=      5-min Rain = 0
KPD3 202016Z 14012KT 41/17 A2984 RMK A01 T04050166  RH  025%=      5-min Rain = 0
KPD3 202017Z 13014KT 41/17 A2984 RMK A01 T04050165  RH  025%=      5-min Rain = 0
KPD3 202018Z 15017KT 40/17 A2984 RMK A01 T04040165  RH  025%=      5-min Rain = 0
KPD3 202019Z 15014KT 40/17 A2984 RMK A01 T04020166  RH  025%=      5-min Rain = 0
KPD3 202020Z 14015KT 40/17 A2984 RMK A01 T04010165  RH  025%=      5-min Rain = 0
KPD3 202021Z 15013KT 40/17 A2984 RMK A01 T04020166  RH  025%=      5-min Rain = 0
KPD3 202022Z 16017KT 40/17 A2984 RMK A01 T04020167  RH  025%=      5-min Rain = 0
KPD3 202023Z 16015KT 40/17 A2984 RMK A01 T04020169  RH  026%=      5-min Rain = 0
KPD3 202024Z 16016KT 40/17 A2984 RMK A01 T03990168  RH  026%=      5-min Rain = 0
KPD3 202025Z 14016G23KT 40/17 A2983 RMK A01 T03990168  RH  026%=      5-min Rain = 0
KPD3 202026Z 15020KT 40/17 A2983 RMK A01 T04010168  RH  026%=      5-min Rain = 0
KPD3 202027Z 15022KT 40/17 A2983 RMK A01 T04030169  RH  026%=      5-min Rain = 0
KPD3 202028Z 17020KT 41/17 A2983 RMK A01 T04050167  RH  025%=      5-min Rain = 0
KPD3 202029Z 17021KT 41/17 A2983 RMK A01 T04060166  RH  025%=      5-min Rain = 0
KPD3 202030Z 17018KT 41/17 A2984 RMK A01 T04050166  RH  025%=      5-min Rain = 0
KPD3 202031Z 17017KT 40/16 A2984 RMK A01 T04020164  RH  025%=      5-min Rain = 0
KPD3 202032Z 17012G18KT 40/16 A2983 RMK A01 T04000163  RH  025%=      5-min Rain = 0
KPD3 202033Z 18011KT 40/16 A2983 RMK A01 T03980164  RH  026%=      5-min Rain = 0
KPD3 202034Z 17013G18KT 40/16 A2983 RMK A01 T04000164  RH  025%=      5-min Rain = 0
KPD3 202035Z 17014G21KT 40/17 A2983 RMK A01 T04010168  RH  026%=      5-min Rain = 0
KPD3 202036Z 17016G21KT 41/17 A2983 RMK A01 T04050167  RH  025%=      5-min Rain = 0
KPD3 202037Z 14019G25KT 41/17 A2983 RMK A01 T04060166  RH  025%=      5-min Rain = 0
KPD3 202038Z 14019KT 41/16 A2983 RMK A01 T04070163  RH  024%=      5-min Rain = 0
KPD3 202039Z 15016G21KT 41/16 A2983 RMK A01 T04050163  RH  024%=      5-min Rain = 0
KPD3 202040Z 14015KT 41/16 A2983 RMK A01 T04050164  RH  025%=      5-min Rain = 0
KPD3 202041Z 13013KT 40/16 A2983 RMK A01 T04040164  RH  025%=      5-min Rain = 0
KPD3 202042Z 15014KT 40/16 A2983 RMK A01 T04010163  RH  025%=      5-min Rain = 0
KPD3 202043Z 17018KT 40/17 A2983 RMK A01 T04010165  RH  025%=      5-min Rain = 0
KPD3 202044Z 17012KT 40/17 A2983 RMK A01 T04020165  RH  025%=      5-min Rain = 0
KPD3 202045Z 17013G19KT 40/17 A2983 RMK A01 T04030166  RH  025%=      5-min Rain = 0
KPD3 202046Z 18015KT 41/16 A2983 RMK A01 T04070161  RH  024%=      5-min Rain = 0
KPD3 202047Z 18015KT 41/16 A2983 RMK A01 T04090160  RH  024%=      5-min Rain = 0
KPD3 202048Z 18018KT 41/16 A2983 RMK A01 T04110157  RH  023%=      5-min Rain = 0
KPD3 202049Z 19016KT 41/16 A2983 RMK A01 T04090156  RH  023%=      5-min Rain = 0
KPD3 202050Z 20013KT 41/16 A2983 RMK A01 T04090156  RH  023%=      5-min Rain = 0
KPD3 202051Z 20010KT 41/15 A2983 RMK A01 T04080154  RH  023%=      5-min Rain = 0
KPD3 202052Z 17009KT 40/16 A2983 RMK A01 T04040158  RH  024%=      5-min Rain = 0
KPD3 202053Z 16012KT 41/17 A2983 RMK A01 T04050165  RH  025%=      5-min Rain = 0
KPD3 202054Z 16013KT 41/17 A2983 RMK A01 T04070170  RH  025%=      5-min Rain = 0
KPD3 202055Z 18016G21KT 41/17 A2983 RMK A01 T04120166  RH  024%=      5-min Rain = 0
KPD3 202056Z 17016KT 41/16 A2983 RMK A01 T04130161  RH  023%=      5-min Rain = 0
KPD3 202057Z 18017KT 41/16 A2983 RMK A01 T04100161  RH  023%=      5-min Rain = 0
KPD3 202058Z 17014KT 41/16 A2983 RMK A01 T04060164  RH  024%=      5-min Rain = 0
KPD3 202059Z 16012KT 41/17 A2983 RMK A01 T04060167  RH  025%=      5-min Rain = 0
KPD3 202100Z 17009KT 40/17 A2983 RMK A01 T04040167  RH  025%=      5-min Rain = 0
KPD3 202101Z 17012G17KT 40/17 A2983 RMK A01 T04040166  RH  025%=      5-min Rain = 0
KPD3 202102Z 16018KT 40/16 A2983 RMK A01 T04030162  RH  024%=      5-min Rain = 0
KPD3 202103Z 16013G18KT 40/16 A2983 RMK A01 T04030160  RH  024%=      5-min Rain = 0
KPD3 202104Z 17014G19KT 40/16 A2983 RMK A01 T04040161  RH  024%=      5-min Rain = 0
KPD3 202105Z 16019G24KT 41/16 A2982 RMK A01 T04060161  RH  024%=      5-min Rain = 0
KPD3 202106Z 16016KT 41/16 A2983 RMK A01 T04080162  RH  024%=      5-min Rain = 0
KPD3 202107Z 17015KT 41/16 A2983 RMK A01 T04100164  RH  024%=      5-min Rain = 0
KPD3 202108Z 19012KT 41/16 A2983 RMK A01 T04090161  RH  024%=      5-min Rain = 0
KPD3 202109Z 18009KT 41/16 A2983 RMK A01 T04100158  RH  023%=      5-min Rain = 0
KPD3 202110Z 16015KT 41/16 A2983 RMK A01 T04110161  RH  023%=      5-min Rain = 0
KPD3 202111Z 16013KT 41/16 A2983 RMK A01 T04130161  RH  023%=      5-min Rain = 0
KPD3 202112Z 15013KT 41/16 A2982 RMK A01 T04090159  RH  023%=      5-min Rain = 0
KPD3 202113Z 15015KT 41/16 A2982 RMK A01 T04060160  RH  024%=      5-min Rain = 0
KPD3 202114Z 16013KT 41/16 A2983 RMK A01 T04050162  RH  024%=      5-min Rain = 0
KPD3 202115Z 17014KT 40/16 A2982 RMK A01 T04040164  RH  025%=      5-min Rain = 0
KPD3 202116Z 15015KT 40/17 A2982 RMK A01 T04040165  RH  025%=      5-min Rain = 0
KPD3 202117Z 16017KT 41/16 A2982 RMK A01 T04060163  RH  024%=      5-min Rain = 0
KPD3 202118Z 14013KT 41/16 A2982 RMK A01 T04060164  RH  024%=      5-min Rain = 0
KPD3 202119Z 14013KT 41/16 A2982 RMK A01 T04100164  RH  024%=      5-min Rain = 0
KPD3 202120Z 15017G22KT 41/16 A2982 RMK A01 T04100163  RH  024%=      5-min Rain = 0
KPD3 202121Z 16020KT 41/16 A2982 RMK A01 T04100161  RH  023%=      5-min Rain = 0
KPD3 202122Z 17016KT 41/16 A2982 RMK A01 T04080157  RH  023%=      5-min Rain = 0
KPD3 202123Z 18022KT 41/16 A2982 RMK A01 T04070161  RH  024%=      5-min Rain = 0
KPD3 202124Z 17018KT 41/16 A2982 RMK A01 T04120164  RH  024%=      5-min Rain = 0
KPD3 202125Z 17016KT 41/16 A2982 RMK A01 T04130164  RH  024%=      5-min Rain = 0
KPD3 202126Z 18015KT 41/16 A2982 RMK A01 T04090161  RH  024%=      5-min Rain = 0
KPD3 202127Z 19016KT 41/15 A2982 RMK A01 T04080149  RH  022%=      5-min Rain = 0
KPD3 202128Z 18014KT 41/15 A2982 RMK A01 T04110152  RH  022%=      5-min Rain = 0
KPD3 202129Z 19014KT 41/16 A2982 RMK A01 T04130160  RH  023%=      5-min Rain = 0
KPD3 202130Z 17010KT 41/16 A2982 RMK A01 T04110164  RH  024%=      5-min Rain = 0
KPD3 202131Z 17013KT 41/16 A2982 RMK A01 T04110164  RH  024%=      5-min Rain = 0
KPD3 202132Z 17012KT 41/16 A2982 RMK A01 T04120161  RH  023%=      5-min Rain = 0
KPD3 202133Z 19017KT 41/15 A2982 RMK A01 T04120146  RH  021%=      5-min Rain = 0
KPD3 202134Z 20012G18KT 41/14 A2982 RMK A01 T04100141  RH  021%=      5-min Rain = 0
KPD3 202135Z 20011KT 41/14 A2982 RMK A01 T04080138  RH  020%=      5-min Rain = 0
KPD3 202136Z 20009KT 41/14 A2982 RMK A01 T04070138  RH  021%=      5-min Rain = 0
KPD3 202137Z 19010KT 41/15 A2982 RMK A01 T04080148  RH  022%=      5-min Rain = 0
KPD3 202138Z 17015G20KT 41/16 A2982 RMK A01 T04100156  RH  023%=      5-min Rain = 0
KPD3 202139Z 16019KT 41/16 A2982 RMK A01 T04120158  RH  023%=      5-min Rain = 0
KPD3 202140Z 18017KT 41/16 A2982 RMK A01 T04100158  RH  023%=      5-min Rain = 0
KPD3 202141Z 18017KT 41/16 A2982 RMK A01 T04120155  RH  022%=      5-min Rain = 0
KPD3 202142Z 18017KT 41/15 A2982 RMK A01 T04130152  RH  022%=      5-min Rain = 0
KPD3 202143Z 18016KT 41/15 A2982 RMK A01 T04080148  RH  022%=      5-min Rain = 0
KPD3 202144Z 18014G19KT 41/15 A2982 RMK A01 T04070150  RH  022%=      5-min Rain = 0
KPD3 202145Z 17014KT 41/15 A2982 RMK A01 T04080154  RH  023%=      5-min Rain = 0
KPD3 202146Z 17010KT 41/16 A2982 RMK A01 T04060157  RH  023%=      5-min Rain = 0
KPD3 202147Z 19015KT 41/16 A2982 RMK A01 T04070156  RH  023%=      5-min Rain = 0
KPD3 202148Z 18017KT 41/16 A2982 RMK A01 T04060155  RH  023%=      5-min Rain = 0
KPD3 202149Z 17014KT 41/16 A2982 RMK A01 T04050155  RH  023%=      5-min Rain = 0
KPD3 202150Z 17013KT 40/16 A2982 RMK A01 T04040155  RH  023%=      5-min Rain = 0
KPD3 202151Z 18012G19KT 40/16 A2982 RMK A01 T04010155  RH  024%=      5-min Rain = 0
KPD3 202152Z 18013KT 40/16 A2982 RMK A01 T04000156  RH  024%=      5-min Rain = 0
KPD3 202153Z 17008KT 40/16 A2982 RMK A01 T04010157  RH  024%=      5-min Rain = 0
KPD3 202154Z 19010KT 40/16 A2981 RMK A01 T04010157  RH  024%=      5-min Rain = 0
KPD3 202155Z 15014G23KT 40/16 A2981 RMK A01 T04020158  RH  024%=      5-min Rain = 0
KPD3 202156Z 19020G28KT 41/15 A2981 RMK A01 T04070154  RH  023%=      5-min Rain = 0
KPD3 202157Z 20015KT 41/15 A2981 RMK A01 T04070151  RH  022%=      5-min Rain = 0
KPD3 202158Z 18015KT 41/15 A2981 RMK A01 T04060151  RH  022%=      5-min Rain = 0
KPD3 202159Z 19015KT 41/15 A2981 RMK A01 T04080149  RH  022%=      5-min Rain = 0
KPD3 202200Z 18016KT 41/15 A2981 RMK A01 T04070149  RH  022%=      5-min Rain = 0
KPD3 202201Z 18016KT 41/15 A2981 RMK A01 T04070150  RH  022%=      5-min Rain = 0
KPD3 202202Z 19014KT 41/15 A2981 RMK A01 T04070152  RH  022%=      5-min Rain = 0
KPD3 202203Z 19010KT 41/15 A2981 RMK A01 T04060153  RH  023%=      5-min Rain = 0
KPD3 202204Z 19010KT 41/15 A2981 RMK A01 T04060154  RH  023%=      5-min Rain = 0
KPD3 202205Z 18012KT 41/15 A2981 RMK A01 T04060151  RH  023%=      5-min Rain = 0
KPD3 202206Z 17015G21KT 40/15 A2981 RMK A01 T04020151  RH  023%=      5-min Rain = 0
KPD3 202207Z 16017G22KT 41/15 A2981 RMK A01 T04050149  RH  022%=      5-min Rain = 0
KPD3 202208Z 17012KT 41/15 A2981 RMK A01 T04060148  RH  022%=      5-min Rain = 0
KPD3 202209Z 16013KT 41/15 A2981 RMK A01 T04050148  RH  022%=      5-min Rain = 0
KPD3 202210Z 17013KT 41/15 A2981 RMK A01 T04070152  RH  023%=      5-min Rain = 0
KPD3 202211Z 18013G18KT 41/15 A2981 RMK A01 T04120153  RH  022%=      5-min Rain = 0
KPD3 202212Z 19011KT 42/15 A2981 RMK A01 T04150153  RH  022%=      5-min Rain = 0
KPD3 202213Z 19011KT 41/15 A2981 RMK A01 T04120153  RH  022%=      5-min Rain = 0
KPD3 202214Z 17010KT 41/15 A2981 RMK A01 T04120153  RH  022%=      5-min Rain = 0
KPD3 202215Z 18017KT 41/15 A2981 RMK A01 T04120154  RH  022%=      5-min Rain = 0
KPD3 202216Z 19014KT 41/15 A2981 RMK A01 T04100152  RH  022%=      5-min Rain = 0
KPD3 202217Z 18012G19KT 41/15 A2981 RMK A01 T04090150  RH  022%=      5-min Rain = 0
KPD3 202218Z 17017G22KT 41/15 A2981 RMK A01 T04070151  RH  022%=      5-min Rain = 0
KPD3 202219Z 16013G18KT 41/15 A2981 RMK A01 T04070151  RH  022%=      5-min Rain = 0
KPD3 202220Z 16016KT 41/15 A2981 RMK A01 T04050151  RH  023%=      5-min Rain = 0
KPD3 202221Z 15013G18KT 41/15 A2981 RMK A01 T04060151  RH  022%=      5-min Rain = 0
KPD3 202222Z 15010KT 41/15 A2981 RMK A01 T04080149  RH  022%=      5-min Rain = 0
KPD3 202223Z 15009KT 41/15 A2981 RMK A01 T04050148  RH  022%=      5-min Rain = 0
KPD3 202224Z 16013KT 40/15 A2981 RMK A01 T04020148  RH  023%=      5-min Rain = 0
KPD3 202225Z 16014KT 40/15 A2981 RMK A01 T04020149  RH  023%=      5-min Rain = 0
KPD3 202226Z 17011G16KT 41/15 A2981 RMK A01 T04060151  RH  023%=      5-min Rain = 0
KPD3 202227Z 20013G19KT 41/15 A2981 RMK A01 T04110150  RH  022%=      5-min Rain = 0
KPD3 202228Z 20012KT 41/15 A2981 RMK A01 T04110145  RH  021%=      5-min Rain = 0
KPD3 202229Z 19013G18KT 41/14 A2981 RMK A01 T04110143  RH  021%=      5-min Rain = 0
KPD3 202230Z 20013KT 41/14 A2981 RMK A01 T04130142  RH  020%=      5-min Rain = 0
KPD3 202231Z 18016KT 41/14 A2981 RMK A01 T04130143  RH  021%=      5-min Rain = 0
KPD3 202232Z 18015G20KT 41/14 A2981 RMK A01 T04130143  RH  021%=      5-min Rain = 0
KPD3 202233Z 17015KT 41/14 A2981 RMK A01 T04120141  RH  020%=      5-min Rain = 0
KPD3 202234Z 18011KT 41/14 A2981 RMK A01 T04110139  RH  020%=      5-min Rain = 0
KPD3 202235Z 19014KT 41/14 A2981 RMK A01 T04110139  RH  020%=      5-min Rain = 0
KPD3 202236Z 19013KT 41/14 A2981 RMK A01 T04060135  RH  020%=      5-min Rain = 0
KPD3 202237Z 18013KT 40/14 A2981 RMK A01 T04020137  RH  021%=      5-min Rain = 0
KPD3 202238Z 17012KT 41/14 A2981 RMK A01 T04050139  RH  021%=      5-min Rain = 0
KPD3 202239Z 16012KT 41/15 A298 RMK A01 T04070150  RH  022%=      5-min Rain = 0
KPD3 202240Z 18013KT 41/14 A298 RMK A01 T04080139  RH  021%=      5-min Rain = 0
KPD3 202241Z 19011KT 41/14 A298 RMK A01 T04080136  RH  020%=      5-min Rain = 0
KPD3 202242Z 20013KT 41/14 A298 RMK A01 T04120135  RH  020%=      5-min Rain = 0
KPD3 202243Z 20013KT 41/13 A298 RMK A01 T04120134  RH  020%=      5-min Rain = 0
KPD3 202244Z 21011G16KT 41/13 A298 RMK A01 T04110132  RH  019%=      5-min Rain = 0
KPD3 202245Z 19007KT 41/13 A298 RMK A01 T04080130  RH  019%=      5-min Rain = 0
KPD3 202246Z 17012KT 41/13 A298 RMK A01 T04080134  RH  020%=      5-min Rain = 0
KPD3 202247Z 17016KT 41/13 A298 RMK A01 T04110133  RH  019%=      5-min Rain = 0
KPD3 202248Z 16015G20KT 41/13 A298 RMK A01 T04120132  RH  019%=      5-min Rain = 0
KPD3 202249Z 17015KT 41/13 A298 RMK A01 T04100131  RH  019%=      5-min Rain = 0
KPD3 202250Z 16013KT 41/13 A298 RMK A01 T04070128  RH  019%=      5-min Rain = 0
KPD3 202251Z 15014KT 41/13 A298 RMK A01 T04060127  RH  019%=      5-min Rain = 0
KPD3 202252Z 15014KT 41/13 A298 RMK A01 T04070127  RH  019%=      5-min Rain = 0
KPD3 202253Z 17013KT 41/13 A298 RMK A01 T04070131  RH  020%=      5-min Rain = 0
KPD3 202254Z 18014KT 41/13 A298 RMK A01 T04080134  RH  020%=      5-min Rain = 0
KPD3 202255Z 18013KT 41/14 A298 RMK A01 T04070138  RH  021%=      5-min Rain = 0
KPD3 202256Z 18013G18KT 41/14 A298 RMK A01 T04070140  RH  021%=      5-min Rain = 0
KPD3 202257Z 17013KT 41/14 A298 RMK A01 T04070143  RH  021%=      5-min Rain = 0
KPD3 202258Z 17013KT 41/14 A298 RMK A01 T04070144  RH  021%=      5-min Rain = 0
KPD3 202259Z 17014KT 41/15 A298 RMK A01 T04090148  RH  022%=      5-min Rain = 0
KPD3 202300Z 17014KT 41/15 A298 RMK A01 T04070148  RH  022%=      5-min Rain = 0
KPD3 202301Z 19015KT 41/15 A298 RMK A01 T04060149  RH  022%=      5-min Rain = 0
KPD3 202302Z 17016G21KT 41/15 A298 RMK A01 T04070151  RH  022%=      5-min Rain = 0
KPD3 202303Z 16018KT 41/15 A298 RMK A01 T04070151  RH  022%=      5-min Rain = 0
KPD3 202304Z 17016KT 41/15 A298 RMK A01 T04070151  RH  022%=      5-min Rain = 0
KPD3 202305Z 17015KT 41/15 A298 RMK A01 T04060151  RH  023%=      5-min Rain = 0
KPD3 202306Z 17009KT 40/15 A298 RMK A01 T04030151  RH  023%=      5-min Rain = 0
KPD3 202307Z 16007KT 40/15 A298 RMK A01 T04000151  RH  023%=      5-min Rain = 0
KPD3 202308Z 14010G15KT 40/15 A298 RMK A01 T04020152  RH  023%=      5-min Rain = 0
KPD3 202309Z 18016G22KT 40/15 A298 RMK A01 T04030151  RH  023%=      5-min Rain = 0
KPD3 202310Z 17016G21KT 40/15 A298 RMK A01 T04030148  RH  022%=      5-min Rain = 0
KPD3 202311Z 18015KT 40/14 A298 RMK A01 T04040138  RH  021%=      5-min Rain = 0
KPD3 202312Z 20014KT 41/13 A298 RMK A01 T04070133  RH  020%=      5-min Rain = 0
KPD3 202313Z 20014KT 41/13 A298 RMK A01 T04070131  RH  020%=      5-min Rain = 0
KPD3 202314Z 21013KT 41/14 A298 RMK A01 T04060137  RH  021%=      5-min Rain = 0
KPD3 202315Z 18010KT 41/14 A298 RMK A01 T04060137  RH  021%=      5-min Rain = 0
KPD3 202316Z 16013KT 41/14 A298 RMK A01 T04060140  RH  021%=      5-min Rain = 0
KPD3 202317Z 17013KT 41/14 A298 RMK A01 T04070141  RH  021%=      5-min Rain = 0
KPD3 202318Z 18011KT 41/14 A298 RMK A01 T04060141  RH  021%=      5-min Rain = 0
KPD3 202319Z 16011KT 40/14 A2979 RMK A01 T04040142  RH  021%=      5-min Rain = 0
KPD3 202320Z 16018KT 41/14 A2979 RMK A01 T04080138  RH  021%=      5-min Rain = 0
KPD3 202321Z 17019KT 41/13 A2979 RMK A01 T04080131  RH  020%=      5-min Rain = 0
KPD3 202322Z 19012KT 41/13 A298 RMK A01 T04050131  RH  020%=      5-min Rain = 0
KPD3 202323Z 17014KT 40/13 A2979 RMK A01 T04040130  RH  020%=      5-min Rain = 0
KPD3 202324Z 18014KT 40/13 A2979 RMK A01 T04030128  RH  020%=      5-min Rain = 0
KPD3 202325Z 18013KT 41/13 A2979 RMK A01 T04050130  RH  020%=      5-min Rain = 0
KPD3 202326Z 19012KT 41/13 A2979 RMK A01 T04060128  RH  019%=      5-min Rain = 0
KPD3 202327Z 19010KT 41/13 A2979 RMK A01 T04070129  RH  019%=      5-min Rain = 0
KPD3 202328Z 16010G15KT 41/13 A2979 RMK A01 T04080128  RH  019%=      5-min Rain = 0
KPD3 202329Z 17010KT 41/13 A2979 RMK A01 T04070128  RH  019%=      5-min Rain = 0
KPD3 202330Z 18012KT 41/13 A2979 RMK A01 T04050127  RH  019%=      5-min Rain = 0
KPD3 202331Z 17012KT 40/13 A2979 RMK A01 T04040132  RH  020%=      5-min Rain = 0
KPD3 202332Z 16015KT 40/14 A2979 RMK A01 T04040136  RH  021%=      5-min Rain = 0
KPD3 202333Z 15012KT 40/14 A2979 RMK A01 T04030136  RH  021%=      5-min Rain = 0
KPD3 202334Z 17014KT 40/14 A2979 RMK A01 T04020135  RH  021%=      5-min Rain = 0
KPD3 202335Z 17012KT 40/13 A2979 RMK A01 T04020134  RH  021%=      5-min Rain = 0
KPD3 202336Z 19015KT 40/14 A2979 RMK A01 T04030135  RH  021%=      5-min Rain = 0
KPD3 202337Z 21012KT 40/13 A2979 RMK A01 T04030133  RH  020%=      5-min Rain = 0
KPD3 202338Z 20012KT 40/13 A2979 RMK A01 T04040133  RH  020%=      5-min Rain = 0
KPD3 202339Z 20012KT 41/13 A2979 RMK A01 T04050132  RH  020%=      5-min Rain = 0
KPD3 202340Z 19010KT 40/13 A2979 RMK A01 T04030132  RH  020%=      5-min Rain = 0
KPD3 202341Z 18013KT 40/13 A2979 RMK A01 T04030132  RH  020%=      5-min Rain = 0
KPD3 202342Z 20014KT 40/13 A2979 RMK A01 T04040131  RH  020%=      5-min Rain = 0
KPD3 202343Z 20011G16KT 41/13 A2979 RMK A01 T04050131  RH  020%=      5-min Rain = 0
KPD3 202344Z 20015KT 40/13 A2979 RMK A01 T04040132  RH  020%=      5-min Rain = 0
KPD3 202345Z 18014KT 40/14 A2979 RMK A01 T04040135  RH  021%=      5-min Rain = 0
KPD3 202346Z 20011KT 40/14 A2979 RMK A01 T04010137  RH  021%=      5-min Rain = 0
KPD3 202347Z 20009KT 40/14 A2979 RMK A01 T03990137  RH  021%=      5-min Rain = 0
KPD3 202348Z 18010KT 40/14 A2979 RMK A01 T03980137  RH  021%=      5-min Rain = 0
KPD3 202349Z 16009G15KT 40/14 A2979 RMK A01 T04000138  RH  021%=      5-min Rain = 0
KPD3 202350Z 16013KT 40/14 A2979 RMK A01 T04020140  RH  021%=      5-min Rain = 0
KPD3 202351Z 17015KT 40/14 A2979 RMK A01 T04040141  RH  021%=      5-min Rain = 0
KPD3 202352Z 17014KT 40/14 A2979 RMK A01 T04030142  RH  022%=      5-min Rain = 0
KPD3 202353Z 17011KT 40/14 A2979 RMK A01 T04020143  RH  022%=      5-min Rain = 0
KPD3 202354Z 18015KT 40/14 A2979 RMK A01 T04010142  RH  022%=      5-min Rain = 0
KPD3 202355Z 18015KT 40/14 A2979 RMK A01 T04020142  RH  022%=      5-min Rain = 0
KPD3 202356Z 19016KT 40/14 A2979 RMK A01 T04030141  RH  022%=      5-min Rain = 0
KPD3 202357Z 18016KT 40/14 A2979 RMK A01 T04020140  RH  021%=      5-min Rain = 0
KPD3 202358Z 18015KT 40/14 A2979 RMK A01 T04010139  RH  021%=      5-min Rain = 0
KPD3 202359Z 18015KT 40/14 A2979 RMK A01 T04010140  RH  022%=      5-min Rain = 0
KPD3 210000Z 17011KT 40/14 A2979 RMK A01 T04000140  RH  022%=      5-min Rain = 0
KPD3 210001Z 17014KT 40/14 A2979 RMK A01 T04000140  RH  022%=      5-min Rain = 0
KPD3 210002Z 17015KT 40/14 A2979 RMK A01 T04010139  RH  021%=      5-min Rain = 0
KPD3 210003Z 17015KT 40/14 A2979 RMK A01 T04000138  RH  021%=      5-min Rain = 0
KPD3 210004Z 17015KT 40/14 A2979 RMK A01 T03990137  RH  021%=      5-min Rain = 0
KPD3 210005Z 18015KT 40/14 A2979 RMK A01 T03980136  RH  021%=      5-min Rain = 0
KPD3 210006Z 19013KT 40/14 A2979 RMK A01 T03970137  RH  022%=      5-min Rain = 0
KPD3 210007Z 20011KT 40/14 A2979 RMK A01 T03970137  RH  022%=      5-min Rain = 0
KPD3 210008Z 18012KT 40/14 A2979 RMK A01 T03970137  RH  022%=      5-min Rain = 0
KPD3 210009Z 16011KT 40/14 A2979 RMK A01 T03990137  RH  021%=      5-min Rain = 0
KPD3 210010Z 16011KT 40/14 A2979 RMK A01 T03990137  RH  021%=      5-min Rain = 0
KPD3 210011Z 16011KT 40/14 A2979 RMK A01 T03990135  RH  021%=      5-min Rain = 0
KPD3 210012Z 15010KT 40/14 A2979 RMK A01 T03990135  RH  021%=      5-min Rain = 0
KPD3 210013Z 16009KT 40/14 A2979 RMK A01 T03990136  RH  021%=      5-min Rain = 0
KPD3 210014Z 15008KT 40/14 A2979 RMK A01 T03990137  RH  021%=      5-min Rain = 0
KPD3 210015Z 17009KT 40/14 A2979 RMK A01 T04020138  RH  021%=      5-min Rain = 0
KPD3 210016Z 17010KT 40/14 A2979 RMK A01 T04020139  RH  021%=      5-min Rain = 0
KPD3 210017Z 15014KT 40/14 A2979 RMK A01 T04000144  RH  022%=      5-min Rain = 0
KPD3 210018Z 16015KT 40/15 A2979 RMK A01 T03980149  RH  023%=      5-min Rain = 0
KPD3 210019Z 15009KT 40/15 A2979 RMK A01 T03970150  RH  023%=      5-min Rain = 0
KPD3 210020Z 19010KT 40/15 A2979 RMK A01 T03960147  RH  023%=      5-min Rain = 0
KPD3 210021Z 16014KT 40/14 A298 RMK A01 T03970142  RH  022%=      5-min Rain = 0
KPD3 210022Z 16015KT 40/15 A298 RMK A01 T03970151  RH  024%=      5-min Rain = 0
KPD3 210023Z 16011KT 39/15 A298 RMK A01 T03940154  RH  024%=      5-min Rain = 0
KPD3 210024Z 15012G17KT 39/15 A298 RMK A01 T03930154  RH  025%=      5-min Rain = 0
KPD3 210025Z 15010KT 39/15 A2979 RMK A01 T03920153  RH  025%=      5-min Rain = 0
KPD3 210026Z 18008KT 39/15 A2979 RMK A01 T03920153  RH  025%=      5-min Rain = 0
KPD3 210027Z 19014KT 39/14 A2979 RMK A01 T03930144  RH  023%=      5-min Rain = 0
KPD3 210028Z 17017KT 39/14 A298 RMK A01 T03930141  RH  023%=      5-min Rain = 0
KPD3 210029Z 17013KT 39/14 A298 RMK A01 T03940141  RH  022%=      5-min Rain = 0
KPD3 210030Z 17012KT 39/14 A298 RMK A01 T03940141  RH  022%=      5-min Rain = 0
KPD3 210031Z 17012KT 39/14 A298 RMK A01 T03940140  RH  022%=      5-min Rain = 0
KPD3 210032Z 16013KT 39/14 A298 RMK A01 T03940140  RH  022%=      5-min Rain = 0
KPD3 210033Z 15011KT 39/15 A298 RMK A01 T03940145  RH  023%=      5-min Rain = 0
KPD3 210034Z 14016KT 39/15 A298 RMK A01 T03940153  RH  024%=      5-min Rain = 0
KPD3 210035Z 14017KT 39/15 A298 RMK A01 T03910154  RH  025%=      5-min Rain = 0
KPD3 210036Z 14016G21KT 39/15 A298 RMK A01 T03890154  RH  025%=      5-min Rain = 0
KPD3 210037Z 15017KT 39/15 A298 RMK A01 T03880154  RH  025%=      5-min Rain = 0
KPD3 210038Z 14017KT 39/15 A298 RMK A01 T03880154  RH  025%=      5-min Rain = 0
KPD3 210039Z 15016G22KT 39/15 A298 RMK A01 T03870153  RH  025%=      5-min Rain = 0
KPD3 210040Z 15014KT 39/15 A298 RMK A01 T03870154  RH  025%=      5-min Rain = 0
KPD3 210041Z 15017KT 39/15 A298 RMK A01 T03860153  RH  025%=      5-min Rain = 0
KPD3 210042Z 16018KT 39/15 A298 RMK A01 T03860152  RH  025%=      5-min Rain = 0
KPD3 210043Z 16014KT 39/15 A298 RMK A01 T03860153  RH  025%=      5-min Rain = 0
KPD3 210044Z 16012KT 39/15 A298 RMK A01 T03860154  RH  025%=      5-min Rain = 0
KPD3 210045Z 15013G18KT 39/15 A298 RMK A01 T03860154  RH  025%=      5-min Rain = 0
KPD3 210046Z 14018KT 39/15 A298 RMK A01 T03860154  RH  026%=      5-min Rain = 0
KPD3 210047Z 14015KT 39/16 A298 RMK A01 T03850155  RH  026%=      5-min Rain = 0
KPD3 210048Z 14015KT 38/16 A298 RMK A01 T03840155  RH  026%=      5-min Rain = 0
KPD3 210049Z 14016KT 38/16 A298 RMK A01 T03830155  RH  026%=      5-min Rain = 0
KPD3 210050Z 15018G25KT 38/16 A298 RMK A01 T03830155  RH  026%=      5-min Rain = 0
KPD3 210051Z 15017KT 38/16 A298 RMK A01 T03820155  RH  026%=      5-min Rain = 0
KPD3 210052Z 15017KT 38/16 A298 RMK A01 T03810156  RH  026%=      5-min Rain = 0
KPD3 210053Z 14020KT 38/16 A298 RMK A01 T03810155  RH  026%=      5-min Rain = 0
KPD3 210054Z 14019KT 38/16 A298 RMK A01 T03800155  RH  027%=      5-min Rain = 0
KPD3 210055Z 14015KT 38/16 A298 RMK A01 T03800155  RH  027%=      5-min Rain = 0
KPD3 210056Z 14014G19KT 38/16 A298 RMK A01 T03800156  RH  027%=      5-min Rain = 0
KPD3 210057Z 14014KT 38/16 A298 RMK A01 T03790156  RH  027%=      5-min Rain = 0
KPD3 210058Z 14016KT 38/16 A298 RMK A01 T03790156  RH  027%=      5-min Rain = 0
KPD3 210059Z 14015KT 38/16 A298 RMK A01 T03790156  RH  027%=      5-min Rain = 0
KPD3 210100Z 15016KT 38/16 A298 RMK A01 T03780156  RH  027%=      5-min Rain = 0
KPD3 210101Z 15014KT 38/16 A298 RMK A01 T03780156  RH  027%=      5-min Rain = 0
KPD3 210102Z 15014KT 38/16 A298 RMK A01 T03790157  RH  027%=      5-min Rain = 0
KPD3 210103Z 16014G20KT 38/16 A298 RMK A01 T03780156  RH  027%=      5-min Rain = 0
KPD3 210104Z 15016KT 38/16 A298 RMK A01 T03780155  RH  027%=      5-min Rain = 0
KPD3 210105Z 16018KT 38/16 A298 RMK A01 T03780155  RH  027%=      5-min Rain = 0
KPD3 210106Z 15017KT 38/15 A298 RMK A01 T03770154  RH  027%=      5-min Rain = 0
KPD3 210107Z 14016KT 38/16 A298 RMK A01 T03770155  RH  027%=      5-min Rain = 0
KPD3 210108Z 14016KT 38/16 A298 RMK A01 T03760155  RH  027%=      5-min Rain = 0
KPD3 210109Z 15016KT 38/15 A298 RMK A01 T03750154  RH  027%=      5-min Rain = 0
KPD3 210110Z 14016KT 38/16 A298 RMK A01 T03750155  RH  027%=      5-min Rain = 0
KPD3 210111Z 15016KT 38/16 A298 RMK A01 T03750155  RH  027%=      5-min Rain = 0
KPD3 210112Z 14014KT 37/16 A298 RMK A01 T03740155  RH  027%=      5-min Rain = 0
KPD3 210113Z 14013KT 37/16 A298 RMK A01 T03740156  RH  028%=      5-min Rain = 0
KPD3 210114Z 15013KT 37/16 A298 RMK A01 T03730156  RH  028%=      5-min Rain = 0
KPD3 210115Z 15014KT 37/16 A298 RMK A01 T03730156  RH  028%=      5-min Rain = 0
KPD3 210116Z 15016KT 37/16 A298 RMK A01 T03730157  RH  028%=      5-min Rain = 0
KPD3 210117Z 15015KT 37/16 A2981 RMK A01 T03720156  RH  028%=      5-min Rain = 0
KPD3 210118Z 14015KT 37/16 A2981 RMK A01 T03720157  RH  028%=      5-min Rain = 0
KPD3 210119Z 14018KT 37/16 A2981 RMK A01 T03710156  RH  028%=      5-min Rain = 0
KPD3 210120Z 14017KT 37/16 A2981 RMK A01 T03710157  RH  028%=      5-min Rain = 0
KPD3 210121Z 14016KT 37/16 A2981 RMK A01 T03710157  RH  028%=      5-min Rain = 0
KPD3 210122Z 14016KT 37/16 A2981 RMK A01 T03700157  RH  028%=      5-min Rain = 0
KPD3 210123Z 14015KT 37/16 A2981 RMK A01 T03700157  RH  028%=      5-min Rain = 0
KPD3 210124Z 14013KT 37/16 A2981 RMK A01 T03690157  RH  029%=      5-min Rain = 0
KPD3 210125Z 14017KT 37/16 A2981 RMK A01 T03680158  RH  029%=      5-min Rain = 0
KPD3 210126Z 14014KT 37/16 A2981 RMK A01 T03670158  RH  029%=      5-min Rain = 0
KPD3 210127Z 14013KT 37/16 A2981 RMK A01 T03670158  RH  029%=      5-min Rain = 0
KPD3 210128Z 14014KT 37/16 A2981 RMK A01 T03660158  RH  029%=      5-min Rain = 0
KPD3 210129Z 14015KT 37/16 A2981 RMK A01 T03650158  RH  029%=      5-min Rain = 0
KPD3 210130Z 14014KT 36/16 A2981 RMK A01 T03640158  RH  029%=      5-min Rain = 0
KPD3 210131Z 14016KT 36/16 A2981 RMK A01 T03640158  RH  029%=      5-min Rain = 0
KPD3 210132Z 15014KT 36/16 A2981 RMK A01 T03640158  RH  029%=      5-min Rain = 0
KPD3 210133Z 14015KT 36/16 A2981 RMK A01 T03640158  RH  030%=      5-min Rain = 0
KPD3 210134Z 14015KT 36/16 A2981 RMK A01 T03630158  RH  030%=      5-min Rain = 0
KPD3 210135Z 14016KT 36/16 A2981 RMK A01 T03630158  RH  030%=      5-min Rain = 0
KPD3 210136Z 14014KT 36/16 A2981 RMK A01 T03630159  RH  030%=      5-min Rain = 0
KPD3 210137Z 14012KT 36/16 A2981 RMK A01 T03620158  RH  030%=      5-min Rain = 0
KPD3 210138Z 15012KT 36/16 A2981 RMK A01 T03610158  RH  030%=      5-min Rain = 0
KPD3 210139Z 15015KT 36/16 A2981 RMK A01 T03600158  RH  030%=      5-min Rain = 0
KPD3 210140Z 14015KT 36/16 A2981 RMK A01 T03600159  RH  030%=      5-min Rain = 0
KPD3 210141Z 14016KT 36/16 A2981 RMK A01 T03600159  RH  030%=      5-min Rain = 0
KPD3 210142Z 14014KT 36/16 A2982 RMK A01 T03600159  RH  030%=      5-min Rain = 0
KPD3 210143Z 14013KT 36/16 A2982 RMK A01 T03590158  RH  030%=      5-min Rain = 0
KPD3 210144Z 14013KT 36/16 A2982 RMK A01 T03580158  RH  031%=      5-min Rain = 0
KPD3 210145Z 14014KT 36/16 A2982 RMK A01 T03570158  RH  031%=      5-min Rain = 0
KPD3 210146Z 15014KT 36/16 A2982 RMK A01 T03570158  RH  031%=      5-min Rain = 0
KPD3 210147Z 14014KT 36/16 A2982 RMK A01 T03570159  RH  031%=      5-min Rain = 0
KPD3 210148Z 14013G18KT 36/16 A2982 RMK A01 T03560158  RH  031%=      5-min Rain = 0
KPD3 210149Z 15018KT 36/16 A2982 RMK A01 T03560158  RH  031%=      5-min Rain = 0
KPD3 210150Z 15016KT 36/16 A2982 RMK A01 T03560158  RH  031%=      5-min Rain = 0
KPD3 210151Z 14014KT 36/16 A2982 RMK A01 T03560158  RH  031%=      5-min Rain = 0
KPD3 210152Z 14016KT 36/16 A2982 RMK A01 T03560159  RH  031%=      5-min Rain = 0
KPD3 210153Z 14013KT 36/16 A2982 RMK A01 T03550159  RH  031%=      5-min Rain = 0
KPD3 210154Z 14012KT 35/16 A2982 RMK A01 T03540159  RH  031%=      5-min Rain = 0
KPD3 210155Z 14013KT 35/16 A2982 RMK A01 T03530159  RH  031%=      5-min Rain = 0
KPD3 210156Z 14012G17KT 35/16 A2982 RMK A01 T03530160  RH  032%=      5-min Rain = 0
KPD3 210157Z 14012KT 35/16 A2982 RMK A01 T03520159  RH  032%=      5-min Rain = 0
KPD3 210158Z 13011KT 35/16 A2982 RMK A01 T03510160  RH  032%=      5-min Rain = 0
KPD3 210159Z 14012KT 35/16 A2982 RMK A01 T03500160  RH  032%=      5-min Rain = 0
KPD3 210200Z 14012KT 35/16 A2982 RMK A01 T03490160  RH  032%=      5-min Rain = 0
KPD3 210201Z 14012KT 35/16 A2982 RMK A01 T03490161  RH  033%=      5-min Rain = 0
KPD3 210202Z 14011KT 35/16 A2982 RMK A01 T03490160  RH  033%=      5-min Rain = 0
KPD3 210203Z 14014KT 35/16 A2982 RMK A01 T03480160  RH  033%=      5-min Rain = 0
KPD3 210204Z 14011KT 35/16 A2982 RMK A01 T03480161  RH  033%=      5-min Rain = 0
KPD3 210205Z 14010KT 35/16 A2982 RMK A01 T03480161  RH  033%=      5-min Rain = 0
KPD3 210206Z 14011KT 35/16 A2982 RMK A01 T03460161  RH  033%=      5-min Rain = 0
KPD3 210207Z 14011KT 35/16 A2982 RMK A01 T03460161  RH  033%=      5-min Rain = 0
KPD3 210208Z 14010KT 35/16 A2983 RMK A01 T03450161  RH  033%=      5-min Rain = 0
KPD3 210209Z 13011KT 35/16 A2983 RMK A01 T03450161  RH  033%=      5-min Rain = 0
KPD3 210210Z 13010KT 34/16 A2983 RMK A01 T03430161  RH  034%=      5-min Rain = 0
KPD3 210211Z 13012KT 34/16 A2983 RMK A01 T03430161  RH  034%=      5-min Rain = 0
KPD3 210212Z 14013KT 34/16 A2983 RMK A01 T03430161  RH  034%=      5-min Rain = 0
KPD3 210213Z 13012KT 34/16 A2983 RMK A01 T03430162  RH  034%=      5-min Rain = 0
KPD3 210214Z 13011KT 34/16 A2983 RMK A01 T03430162  RH  034%=      5-min Rain = 0
KPD3 210215Z 13011KT 34/16 A2983 RMK A01 T03420162  RH  034%=      5-min Rain = 0
KPD3 210216Z 13010KT 34/16 A2983 RMK A01 T03410162  RH  034%=      5-min Rain = 0
KPD3 210217Z 13014KT 34/16 A2983 RMK A01 T03400162  RH  035%=      5-min Rain = 0
KPD3 210218Z 13013KT 34/16 A2983 RMK A01 T03400162  RH  035%=      5-min Rain = 0
KPD3 210219Z 13012KT 34/16 A2983 RMK A01 T03400162  RH  035%=      5-min Rain = 0
KPD3 210220Z 13012KT 34/16 A2983 RMK A01 T03390163  RH  035%=      5-min Rain = 0
KPD3 210221Z 13012KT 34/16 A2983 RMK A01 T03390163  RH  035%=      5-min Rain = 0
KPD3 210222Z 13012KT 34/16 A2983 RMK A01 T03380163  RH  035%=      5-min Rain = 0
KPD3 210223Z 14013KT 34/16 A2983 RMK A01 T03380163  RH  035%=      5-min Rain = 0
KPD3 210224Z 13012KT 34/16 A2983 RMK A01 T03380164  RH  035%=      5-min Rain = 0
KPD3 210225Z 13011KT 34/16 A2983 RMK A01 T03370163  RH  035%=      5-min Rain = 0
KPD3 210226Z 13012KT 34/16 A2983 RMK A01 T03370164  RH  036%=      5-min Rain = 0
KPD3 210227Z 13014G19KT 34/16 A2983 RMK A01 T03360163  RH  036%=      5-min Rain = 0
KPD3 210228Z 14016KT 34/16 A2983 RMK A01 T03360164  RH  036%=      5-min Rain = 0
KPD3 210229Z 14015KT 34/16 A2983 RMK A01 T03370164  RH  036%=      5-min Rain = 0
KPD3 210230Z 14015KT 34/16 A2983 RMK A01 T03370164  RH  036%=      5-min Rain = 0
KPD3 210231Z 14014KT 34/16 A2983 RMK A01 T03370164  RH  036%=      5-min Rain = 0
KPD3 210232Z 14013G18KT 34/16 A2983 RMK A01 T03380164  RH  036%=      5-min Rain = 0
KPD3 210233Z 14014KT 34/16 A2983 RMK A01 T03370164  RH  036%=      5-min Rain = 0
KPD3 210234Z 14013KT 34/17 A2984 RMK A01 T03370165  RH  036%=      5-min Rain = 0
KPD3 210235Z 13012KT 34/16 A2984 RMK A01 T03360164  RH  036%=      5-min Rain = 0
KPD3 210236Z 13012KT 34/16 A2984 RMK A01 T03360164  RH  036%=      5-min Rain = 0
KPD3 210237Z 14011KT 34/16 A2984 RMK A01 T03350164  RH  036%=      5-min Rain = 0
KPD3 210238Z 14015KT 33/16 A2984 RMK A01 T03340164  RH  036%=      5-min Rain = 0
KPD3 210239Z 13014KT 33/16 A2984 RMK A01 T03340164  RH  036%=      5-min Rain = 0
KPD3 210240Z 14013KT 34/16 A2984 RMK A01 T03350164  RH  036%=      5-min Rain = 0
KPD3 210241Z 14014KT 34/17 A2984 RMK A01 T03350165  RH  036%=      5-min Rain = 0
KPD3 210242Z 14013KT 33/17 A2984 RMK A01 T03340165  RH  036%=      5-min Rain = 0
KPD3 210243Z 14014KT 33/17 A2984 RMK A01 T03340165  RH  037%=      5-min Rain = 0
KPD3 210244Z 14013KT 33/17 A2984 RMK A01 T03330165  RH  037%=      5-min Rain = 0
KPD3 210245Z 14016KT 33/17 A2984 RMK A01 T03340165  RH  037%=      5-min Rain = 0
KPD3 210246Z 14015KT 33/17 A2984 RMK A01 T03340165  RH  037%=      5-min Rain = 0
KPD3 210247Z 14016KT 33/17 A2984 RMK A01 T03340165  RH  036%=      5-min Rain = 0
KPD3 210248Z 14014KT 33/17 A2984 RMK A01 T03340165  RH  036%=      5-min Rain = 0
KPD3 210249Z 14013KT 33/17 A2984 RMK A01 T03340166  RH  037%=      5-min Rain = 0
KPD3 210250Z 14013KT 33/17 A2984 RMK A01 T03340166  RH  037%=      5-min Rain = 0
KPD3 210251Z 14012KT 33/17 A2984 RMK A01 T03330166  RH  037%=      5-min Rain = 0
KPD3 210252Z 14011KT 33/17 A2984 RMK A01 T03320165  RH  037%=      5-min Rain = 0
KPD3 210253Z 14011KT 33/17 A2985 RMK A01 T03310165  RH  037%=      5-min Rain = 0
KPD3 210254Z 14011KT 33/17 A2985 RMK A01 T03310165  RH  037%=      5-min Rain = 0
KPD3 210255Z 14012KT 33/17 A2985 RMK A01 T03290165  RH  037%=      5-min Rain = 0
KPD3 210256Z 14012KT 33/17 A2985 RMK A01 T03290165  RH  038%=      5-min Rain = 0
KPD3 210257Z 14012KT 33/17 A2985 RMK A01 T03280165  RH  038%=      5-min Rain = 0
KPD3 210258Z 14012KT 33/17 A2985 RMK A01 T03290166  RH  038%=      5-min Rain = 0
KPD3 210259Z 14012KT 33/17 A2985 RMK A01 T03280165  RH  038%=      5-min Rain = 0
KPD3 210300Z 14013KT 33/17 A2985 RMK A01 T03280165  RH  038%=      5-min Rain = 0
KPD3 210301Z 14012KT 33/17 A2985 RMK A01 T03280165  RH  038%=      5-min Rain = 0
KPD3 210302Z 14013KT 33/17 A2985 RMK A01 T03280166  RH  038%=      5-min Rain = 0
KPD3 210303Z 14012KT 33/17 A2985 RMK A01 T03290166  RH  038%=      5-min Rain = 0
KPD3 210304Z 14013KT 33/17 A2985 RMK A01 T03290166  RH  038%=      5-min Rain = 0
KPD3 210305Z 14014KT 33/17 A2985 RMK A01 T03290166  RH  038%=      5-min Rain = 0
KPD3 210306Z 14012KT 33/17 A2986 RMK A01 T03290166  RH  038%=      5-min Rain = 0
KPD3 210307Z 14012KT 33/17 A2986 RMK A01 T03290167  RH  038%=      5-min Rain = 0
KPD3 210308Z 14013G18KT 33/17 A2986 RMK A01 T03290166  RH  038%=      5-min Rain = 0
KPD3 210309Z 14012KT 33/17 A2986 RMK A01 T03280166  RH  038%=      5-min Rain = 0
KPD3 210310Z 14014KT 33/17 A2986 RMK A01 T03280166  RH  038%=      5-min Rain = 0
KPD3 210311Z 14011KT 33/17 A2986 RMK A01 T03280166  RH  038%=      5-min Rain = 0
KPD3 210312Z 13013KT 33/17 A2986 RMK A01 T03270166  RH  038%=      5-min Rain = 0
KPD3 210313Z 14011KT 33/17 A2986 RMK A01 T03270166  RH  038%=      5-min Rain = 0
KPD3 210314Z 13012KT 33/17 A2986 RMK A01 T03260166  RH  038%=      5-min Rain = 0
KPD3 210315Z 14011KT 33/17 A2986 RMK A01 T03260166  RH  038%=      5-min Rain = 0
KPD3 210316Z 14012KT 33/17 A2986 RMK A01 T03250166  RH  038%=      5-min Rain = 0
KPD3 210317Z 14013KT 33/17 A2986 RMK A01 T03250166  RH  038%=      5-min Rain = 0
KPD3 210318Z 14012KT 33/17 A2986 RMK A01 T03250166  RH  039%=      5-min Rain = 0
KPD3 210319Z 14014KT 33/17 A2986 RMK A01 T03250166  RH  039%=      5-min Rain = 0
KPD3 210320Z 14015KT 33/17 A2986 RMK A01 T03250166  RH  039%=      5-min Rain = 0
KPD3 210321Z 14012KT 33/17 A2986 RMK A01 T03250166  RH  038%=      5-min Rain = 0
KPD3 210322Z 13011KT 33/17 A2986 RMK A01 T03250166  RH  039%=      5-min Rain = 0
KPD3 210323Z 14011KT 32/17 A2986 RMK A01 T03240166  RH  039%=      5-min Rain = 0
KPD3 210324Z 14011KT 32/17 A2986 RMK A01 T03230166  RH  039%=      5-min Rain = 0
KPD3 210325Z 14012KT 32/17 A2986 RMK A01 T03220165  RH  039%=      5-min Rain = 0
KPD3 210326Z 14013KT 32/17 A2986 RMK A01 T03220166  RH  039%=      5-min Rain = 0
KPD3 210327Z 14013KT 32/17 A2987 RMK A01 T03220165  RH  039%=      5-min Rain = 0
KPD3 210328Z 14013KT 32/17 A2987 RMK A01 T03220166  RH  039%=      5-min Rain = 0
KPD3 210329Z 14011KT 32/17 A2987 RMK A01 T03230166  RH  039%=      5-min Rain = 0
KPD3 210330Z 14012KT 32/17 A2987 RMK A01 T03220166  RH  039%=      5-min Rain = 0
KPD3 210331Z 14013KT 32/17 A2987 RMK A01 T03220166  RH  039%=      5-min Rain = 0
KPD3 210332Z 14013KT 32/17 A2987 RMK A01 T03220166  RH  039%=      5-min Rain = 0
KPD3 210333Z 14014KT 32/17 A2987 RMK A01 T03210165  RH  039%=      5-min Rain = 0
KPD3 210334Z 14013KT 32/17 A2987 RMK A01 T03220166  RH  039%=      5-min Rain = 0
KPD3 210335Z 14012KT 32/17 A2987 RMK A01 T03220165  RH  039%=      5-min Rain = 0
KPD3 210336Z 14012KT 32/17 A2987 RMK A01 T03220165  RH  039%=      5-min Rain = 0
KPD3 210337Z 14013KT 32/17 A2987 RMK A01 T03220165  RH  039%=      5-min Rain = 0
KPD3 210338Z 14011KT 32/17 A2987 RMK A01 T03210165  RH  039%=      5-min Rain = 0
KPD3 210339Z 14011KT 32/17 A2987 RMK A01 T03210165  RH  039%=      5-min Rain = 0
KPD3 210340Z 13011KT 32/17 A2987 RMK A01 T03200166  RH  040%=      5-min Rain = 0
KPD3 210341Z 14012KT 32/17 A2987 RMK A01 T03190165  RH  040%=      5-min Rain = 0
KPD3 210342Z 14011KT 32/17 A2988 RMK A01 T03190165  RH  040%=      5-min Rain = 0
KPD3 210343Z 14010KT 32/17 A2988 RMK A01 T03180165  RH  040%=      5-min Rain = 0
KPD3 210344Z 14010KT 32/17 A2988 RMK A01 T03170165  RH  040%=      5-min Rain = 0
KPD3 210345Z 14011KT 32/17 A2988 RMK A01 T03170165  RH  040%=      5-min Rain = 0
KPD3 210346Z 14012KT 32/17 A2988 RMK A01 T03170165  RH  040%=      5-min Rain = 0
KPD3 210347Z 14015KT 32/16 A2988 RMK A01 T03170164  RH  040%=      5-min Rain = 0
KPD3 210348Z 14011KT 32/16 A2988 RMK A01 T03180164  RH  040%=      5-min Rain = 0
KPD3 210349Z 14012KT 32/16 A2988 RMK A01 T03180164  RH  040%=      5-min Rain = 0
KPD3 210350Z 13011KT 32/16 A2988 RMK A01 T03180164  RH  040%=      5-min Rain = 0
KPD3 210351Z 13010KT 32/16 A2988 RMK A01 T03170164  RH  040%=      5-min Rain = 0
KPD3 210352Z 13011KT 32/16 A2988 RMK A01 T03160164  RH  040%=      5-min Rain = 0
KPD3 210353Z 13011KT 32/16 A2988 RMK A01 T03150164  RH  040%=      5-min Rain = 0
KPD3 210354Z 13009KT 32/16 A2988 RMK A01 T03150164  RH  040%=      5-min Rain = 0
KPD3 210355Z 13010KT 31/16 A2988 RMK A01 T03140164  RH  040%=      5-min Rain = 0
KPD3 210356Z 13011KT 31/16 A2988 RMK A01 T03130163  RH  041%=      5-min Rain = 0
KPD3 210357Z 13010KT 31/16 A2988 RMK A01 T03120163  RH  041%=      5-min Rain = 0
KPD3 210358Z 13009KT 31/16 A2988 RMK A01 T03120163  RH  041%=      5-min Rain = 0
KPD3 210359Z 13009KT 31/16 A2989 RMK A01 T03120163  RH  041%=      5-min Rain = 0
KPD3 210400Z 13010KT 31/16 A2989 RMK A01 T03110162  RH  041%=      5-min Rain = 0
KPD3 210401Z 13009KT 31/16 A2989 RMK A01 T03100162  RH  041%=      5-min Rain = 0
KPD3 210402Z 13009KT 31/16 A2989 RMK A01 T03090162  RH  041%=      5-min Rain = 0
KPD3 210403Z 13009KT 31/16 A2989 RMK A01 T03090162  RH  041%=      5-min Rain = 0
KPD3 210404Z 13009KT 31/16 A2989 RMK A01 T03080162  RH  041%=      5-min Rain = 0
KPD3 210405Z 12009KT 31/16 A2989 RMK A01 T03070161  RH  041%=      5-min Rain = 0
KPD3 210406Z 13009KT 31/16 A2989 RMK A01 T03070161  RH  041%=      5-min Rain = 0
KPD3 210407Z 13009KT 31/16 A2989 RMK A01 T03060161  RH  042%=      5-min Rain = 0
KPD3 210408Z 12008KT 31/16 A2989 RMK A01 T03060161  RH  042%=      5-min Rain = 0
KPD3 210409Z 12009KT 31/16 A2989 RMK A01 T03050160  RH  042%=      5-min Rain = 0
KPD3 210410Z 12008KT 30/16 A2989 RMK A01 T03040160  RH  042%=      5-min Rain = 0
KPD3 210411Z 12008KT 30/16 A2989 RMK A01 T03030160  RH  042%=      5-min Rain = 0
KPD3 210412Z 13008KT 30/16 A2989 RMK A01 T03020160  RH  042%=      5-min Rain = 0
KPD3 210413Z 12008KT 30/16 A2989 RMK A01 T03020160  RH  042%=      5-min Rain = 0
KPD3 210414Z 13009KT 30/16 A2989 RMK A01 T03010159  RH  042%=      5-min Rain = 0
KPD3 210415Z 13009KT 30/16 A2989 RMK A01 T03020159  RH  042%=      5-min Rain = 0
KPD3 210416Z 12008KT 30/16 A2989 RMK A01 T03010159  RH  042%=      5-min Rain = 0
KPD3 210417Z 13008KT 30/16 A2989 RMK A01 T03010158  RH  042%=      5-min Rain = 0
KPD3 210418Z 13008KT 30/16 A2989 RMK A01 T03000158  RH  042%=      5-min Rain = 0
KPD3 210419Z 13009KT 30/16 A2989 RMK A01 T03000158  RH  042%=      5-min Rain = 0
KPD3 210420Z 13009KT 30/16 A2989 RMK A01 T03000158  RH  042%=      5-min Rain = 0
KPD3 210421Z 13008KT 30/16 A2989 RMK A01 T03000158  RH  042%=      5-min Rain = 0
KPD3 210422Z 13008KT 30/16 A2989 RMK A01 T02990158  RH  042%=      5-min Rain = 0
KPD3 210423Z 13008KT 30/16 A2989 RMK A01 T02990158  RH  042%=      5-min Rain = 0
KPD3 210424Z 13009KT 30/16 A2989 RMK A01 T02980158  RH  043%=      5-min Rain = 0
KPD3 210425Z 13009KT 30/16 A2989 RMK A01 T02990158  RH  043%=      5-min Rain = 0
KPD3 210426Z 13008KT 30/16 A2989 RMK A01 T02990158  RH  042%=      5-min Rain = 0
KPD3 210427Z 13009KT 30/16 A2989 RMK A01 T02980157  RH  043%=      5-min Rain = 0
KPD3 210428Z 13009KT 30/16 A2989 RMK A01 T02980158  RH  043%=      5-min Rain = 0
KPD3 210429Z 13009KT 30/16 A2989 RMK A01 T02980158  RH  043%=      5-min Rain = 0
KPD3 210430Z 13009KT 30/16 A2989 RMK A01 T02990158  RH  042%=      5-min Rain = 0
KPD3 210431Z 13009KT 30/16 A2989 RMK A01 T02990158  RH  043%=      5-min Rain = 0
KPD3 210432Z 13010KT 30/16 A2989 RMK A01 T02990158  RH  043%=      5-min Rain = 0
KPD3 210433Z 13009KT 30/16 A2989 RMK A01 T02980158  RH  043%=      5-min Rain = 0
KPD3 210434Z 13010KT 30/16 A2989 RMK A01 T02990158  RH  043%=      5-min Rain = 0
KPD3 210435Z 13009KT 30/16 A2989 RMK A01 T02980158  RH  043%=      5-min Rain = 0
KPD3 210436Z 13009KT 30/16 A2989 RMK A01 T02980158  RH  043%=      5-min Rain = 0
KPD3 210437Z 13009KT 30/16 A2989 RMK A01 T02980159  RH  043%=      5-min Rain = 0
KPD3 210438Z 13010KT 30/16 A2989 RMK A01 T02980158  RH  043%=      5-min Rain = 0
KPD3 210439Z 13009KT 30/16 A2989 RMK A01 T02980159  RH  043%=      5-min Rain = 0
KPD3 210440Z 13009KT 30/16 A299 RMK A01 T02980159  RH  043%=      5-min Rain = 0
KPD3 210441Z 13010KT 30/16 A299 RMK A01 T02980159  RH  043%=      5-min Rain = 0
KPD3 210442Z 13009KT 30/16 A299 RMK A01 T02980159  RH  043%=      5-min Rain = 0
KPD3 210443Z 14009KT 30/16 A299 RMK A01 T02970159  RH  043%=      5-min Rain = 0
KPD3 210444Z 13009KT 30/16 A299 RMK A01 T02960159  RH  044%=      5-min Rain = 0
KPD3 210445Z 13008KT 30/16 A299 RMK A01 T02950159  RH  044%=      5-min Rain = 0
KPD3 210446Z 13009KT 30/16 A299 RMK A01 T02950159  RH  044%=      5-min Rain = 0
KPD3 210447Z 13010KT 30/16 A299 RMK A01 T02950159  RH  044%=      5-min Rain = 0
KPD3 210448Z 13009KT 30/16 A299 RMK A01 T02950159  RH  044%=      5-min Rain = 0
KPD3 210449Z 13009KT 30/16 A299 RMK A01 T02950160  RH  044%=      5-min Rain = 0
KPD3 210450Z 13010KT 29/16 A299 RMK A01 T02940159  RH  044%=      5-min Rain = 0
KPD3 210451Z 14011KT 29/16 A299 RMK A01 T02940160  RH  044%=      5-min Rain = 0
KPD3 210452Z 13010KT 29/16 A299 RMK A01 T02940160  RH  044%=      5-min Rain = 0
KPD3 210453Z 14011KT 29/16 A299 RMK A01 T02940160  RH  044%=      5-min Rain = 0
KPD3 210454Z 14010KT 29/16 A299 RMK A01 T02940160  RH  044%=      5-min Rain = 0
KPD3 210455Z 13010KT 29/16 A299 RMK A01 T02940159  RH  044%=      5-min Rain = 0
KPD3 210456Z 14010KT 29/16 A299 RMK A01 T02940160  RH  044%=      5-min Rain = 0
KPD3 210457Z 14010KT 29/16 A299 RMK A01 T02930160  RH  044%=      5-min Rain = 0
KPD3 210458Z 14010KT 29/16 A299 RMK A01 T02930160  RH  044%=      5-min Rain = 0
KPD3 210459Z 14010KT 29/16 A299 RMK A01 T02930160  RH  045%=      5-min Rain = 0

Page generated in 0.1221 seconds.